<?xml version="1.0" encoding="UTF-8" standalone="no" ?>
<gpx xmlns="http://www.topografix.com/GPX/1/1" xmlns:xsi="http://www.w3.org/2001/XMLSchema-instance" xsi:schemaLocation="http://www.topografix.com/GPX/1/1 http://www.topografix.com/GPX/1/1/gpx.xsd" version="1.1" creator="VisuGPX - https://www.visugpx.com">
  <metadata>
    <name>vallée du Segre</name>
    <desc><![CDATA[boucle autour du Segre]]></desc>
  </metadata>
  <trk>
    <name><![CDATA[2013-08-08-02]]></name>
    <trkseg>
      <trkpt lat="42.45553" lon="2.06472">
        <ele>1444</ele>
        <time>2013-08-08T08:31:46Z</time>
      </trkpt>
      <trkpt lat="42.45554" lon="2.0648">
        <ele>1443</ele>
        <time>2013-08-08T08:31:54Z</time>
      </trkpt>
      <trkpt lat="42.45551" lon="2.06486">
        <ele>1442</ele>
        <time>2013-08-08T08:32:02Z</time>
      </trkpt>
      <trkpt lat="42.45552" lon="2.06491">
        <ele>1443.3</ele>
        <time>2013-08-08T08:33:10Z</time>
      </trkpt>
      <trkpt lat="42.45553" lon="2.06492">
        <ele>1443.5</ele>
        <time>2013-08-08T08:33:11Z</time>
      </trkpt>
      <trkpt lat="42.45555" lon="2.06502">
        <ele>1443.8</ele>
        <time>2013-08-08T08:33:22Z</time>
      </trkpt>
      <trkpt lat="42.45555" lon="2.06508">
        <ele>1444.1</ele>
        <time>2013-08-08T08:33:26Z</time>
      </trkpt>
      <trkpt lat="42.45557" lon="2.06513">
        <ele>1445.3</ele>
        <time>2013-08-08T08:33:32Z</time>
      </trkpt>
      <trkpt lat="42.45559" lon="2.06518">
        <ele>1446.1</ele>
        <time>2013-08-08T08:33:38Z</time>
      </trkpt>
      <trkpt lat="42.4556" lon="2.06513">
        <ele>1446.2</ele>
        <time>2013-08-08T08:33:50Z</time>
      </trkpt>
      <trkpt lat="42.4556" lon="2.06507">
        <ele>1445.4</ele>
        <time>2013-08-08T08:33:55Z</time>
      </trkpt>
      <trkpt lat="42.45558" lon="2.06502">
        <ele>1445.7</ele>
        <time>2013-08-08T08:34:02Z</time>
      </trkpt>
      <trkpt lat="42.45555" lon="2.06498">
        <ele>1443.9</ele>
        <time>2013-08-08T08:34:06Z</time>
      </trkpt>
      <trkpt lat="42.45553" lon="2.06494">
        <ele>1444.3</ele>
        <time>2013-08-08T08:34:10Z</time>
      </trkpt>
      <trkpt lat="42.45551" lon="2.0649">
        <ele>1443.4</ele>
        <time>2013-08-08T08:34:15Z</time>
      </trkpt>
      <trkpt lat="42.45551" lon="2.06489">
        <ele>1443.1</ele>
        <time>2013-08-08T08:34:16Z</time>
      </trkpt>
      <trkpt lat="42.45546" lon="2.06492">
        <ele>1440.4</ele>
        <time>2013-08-08T08:34:26Z</time>
      </trkpt>
      <trkpt lat="42.45546" lon="2.06497">
        <ele>1439.8</ele>
        <time>2013-08-08T08:34:30Z</time>
      </trkpt>
      <trkpt lat="42.45548" lon="2.06502">
        <ele>1438.8</ele>
        <time>2013-08-08T08:34:43Z</time>
      </trkpt>
      <trkpt lat="42.45548" lon="2.06507">
        <ele>1438.1</ele>
        <time>2013-08-08T08:34:48Z</time>
      </trkpt>
      <trkpt lat="42.45548" lon="2.06512">
        <ele>1437.1</ele>
        <time>2013-08-08T08:34:52Z</time>
      </trkpt>
      <trkpt lat="42.45547" lon="2.06518">
        <ele>1436.4</ele>
        <time>2013-08-08T08:34:57Z</time>
      </trkpt>
      <trkpt lat="42.45546" lon="2.06522">
        <ele>1435.1</ele>
        <time>2013-08-08T08:35:02Z</time>
      </trkpt>
      <trkpt lat="42.45543" lon="2.06526">
        <ele>1433.9</ele>
        <time>2013-08-08T08:35:07Z</time>
      </trkpt>
      <trkpt lat="42.45538" lon="2.06526">
        <ele>1433.2</ele>
        <time>2013-08-08T08:35:13Z</time>
      </trkpt>
      <trkpt lat="42.45536" lon="2.06523">
        <ele>1432.9</ele>
        <time>2013-08-08T08:35:18Z</time>
      </trkpt>
      <trkpt lat="42.45534" lon="2.06522">
        <ele>1432.9</ele>
        <time>2013-08-08T08:35:19Z</time>
      </trkpt>
      <trkpt lat="42.45528" lon="2.06521">
        <ele>1432.9</ele>
        <time>2013-08-08T08:35:25Z</time>
      </trkpt>
      <trkpt lat="42.45524" lon="2.06522">
        <ele>1433.8</ele>
        <time>2013-08-08T08:35:31Z</time>
      </trkpt>
      <trkpt lat="42.4552" lon="2.06522">
        <ele>1433.1</ele>
        <time>2013-08-08T08:35:37Z</time>
      </trkpt>
      <trkpt lat="42.45516" lon="2.06523">
        <ele>1433.8</ele>
        <time>2013-08-08T08:35:41Z</time>
      </trkpt>
      <trkpt lat="42.45512" lon="2.06522">
        <ele>1434.5</ele>
        <time>2013-08-08T08:35:46Z</time>
      </trkpt>
      <trkpt lat="42.45508" lon="2.06524">
        <ele>1436</ele>
        <time>2013-08-08T08:35:52Z</time>
      </trkpt>
      <trkpt lat="42.45504" lon="2.06525">
        <ele>1437.1</ele>
        <time>2013-08-08T08:35:57Z</time>
      </trkpt>
      <trkpt lat="42.455" lon="2.06526">
        <ele>1437.7</ele>
        <time>2013-08-08T08:36:02Z</time>
      </trkpt>
      <trkpt lat="42.45497" lon="2.06527">
        <ele>1438.5</ele>
        <time>2013-08-08T08:36:07Z</time>
      </trkpt>
      <trkpt lat="42.45493" lon="2.06527">
        <ele>1440.1</ele>
        <time>2013-08-08T08:36:11Z</time>
      </trkpt>
      <trkpt lat="42.45489" lon="2.06527">
        <ele>1441.2</ele>
        <time>2013-08-08T08:36:15Z</time>
      </trkpt>
      <trkpt lat="42.45485" lon="2.06527">
        <ele>1441.8</ele>
        <time>2013-08-08T08:36:20Z</time>
      </trkpt>
      <trkpt lat="42.45484" lon="2.06527">
        <ele>1442.3</ele>
        <time>2013-08-08T08:36:21Z</time>
      </trkpt>
      <trkpt lat="42.45477" lon="2.06528">
        <ele>1444.3</ele>
        <time>2013-08-08T08:36:30Z</time>
      </trkpt>
      <trkpt lat="42.45473" lon="2.06529">
        <ele>1444.8</ele>
        <time>2013-08-08T08:36:35Z</time>
      </trkpt>
      <trkpt lat="42.45469" lon="2.06532">
        <ele>1445</ele>
        <time>2013-08-08T08:36:39Z</time>
      </trkpt>
      <trkpt lat="42.45465" lon="2.06533">
        <ele>1445.5</ele>
        <time>2013-08-08T08:36:43Z</time>
      </trkpt>
      <trkpt lat="42.45461" lon="2.06536">
        <ele>1445.7</ele>
        <time>2013-08-08T08:36:47Z</time>
      </trkpt>
      <trkpt lat="42.45457" lon="2.06537">
        <ele>1446.1</ele>
        <time>2013-08-08T08:36:51Z</time>
      </trkpt>
      <trkpt lat="42.45453" lon="2.06538">
        <ele>1446</ele>
        <time>2013-08-08T08:36:55Z</time>
      </trkpt>
      <trkpt lat="42.4545" lon="2.06539">
        <ele>1447.3</ele>
        <time>2013-08-08T08:37:03Z</time>
      </trkpt>
      <trkpt lat="42.45448" lon="2.06544">
        <ele>1447.4</ele>
        <time>2013-08-08T08:37:07Z</time>
      </trkpt>
      <trkpt lat="42.45446" lon="2.06548">
        <ele>1447.6</ele>
        <time>2013-08-08T08:37:15Z</time>
      </trkpt>
      <trkpt lat="42.45443" lon="2.06553">
        <ele>1449.1</ele>
        <time>2013-08-08T08:37:21Z</time>
      </trkpt>
      <trkpt lat="42.45443" lon="2.06553">
        <ele>1449.5</ele>
        <time>2013-08-08T08:37:22Z</time>
      </trkpt>
      <trkpt lat="42.45438" lon="2.06559">
        <ele>1453.7</ele>
        <time>2013-08-08T08:37:47Z</time>
      </trkpt>
      <trkpt lat="42.45436" lon="2.06563">
        <ele>1454.3</ele>
        <time>2013-08-08T08:37:50Z</time>
      </trkpt>
      <trkpt lat="42.45434" lon="2.06565">
        <ele>1454.9</ele>
        <time>2013-08-08T08:37:52Z</time>
      </trkpt>
      <trkpt lat="42.45431" lon="2.06568">
        <ele>1455.3</ele>
        <time>2013-08-08T08:37:54Z</time>
      </trkpt>
      <trkpt lat="42.45427" lon="2.06571">
        <ele>1455.2</ele>
        <time>2013-08-08T08:37:58Z</time>
      </trkpt>
      <trkpt lat="42.4543" lon="2.06575">
        <ele>1459</ele>
        <time>2013-08-08T08:38:15Z</time>
      </trkpt>
      <trkpt lat="42.45426" lon="2.06579">
        <ele>1459.3</ele>
        <time>2013-08-08T08:38:20Z</time>
      </trkpt>
      <trkpt lat="42.45422" lon="2.06582">
        <ele>1459.3</ele>
        <time>2013-08-08T08:38:25Z</time>
      </trkpt>
      <trkpt lat="42.45422" lon="2.06581">
        <ele>1459.5</ele>
        <time>2013-08-08T08:38:26Z</time>
      </trkpt>
      <trkpt lat="42.4542" lon="2.06592">
        <ele>1461.8</ele>
        <time>2013-08-08T08:38:44Z</time>
      </trkpt>
      <trkpt lat="42.4542" lon="2.06598">
        <ele>1462.4</ele>
        <time>2013-08-08T08:38:47Z</time>
      </trkpt>
      <trkpt lat="42.4542" lon="2.06604">
        <ele>1464.1</ele>
        <time>2013-08-08T08:38:52Z</time>
      </trkpt>
      <trkpt lat="42.4542" lon="2.0661">
        <ele>1464.6</ele>
        <time>2013-08-08T08:38:56Z</time>
      </trkpt>
      <trkpt lat="42.45419" lon="2.06615">
        <ele>1465</ele>
        <time>2013-08-08T08:39:00Z</time>
      </trkpt>
      <trkpt lat="42.45418" lon="2.06621">
        <ele>1465.1</ele>
        <time>2013-08-08T08:39:11Z</time>
      </trkpt>
      <trkpt lat="42.45414" lon="2.06621">
        <ele>1465.8</ele>
        <time>2013-08-08T08:39:35Z</time>
      </trkpt>
      <trkpt lat="42.45413" lon="2.06621">
        <ele>1465.5</ele>
        <time>2013-08-08T08:39:36Z</time>
      </trkpt>
      <trkpt lat="42.45408" lon="2.06626">
        <ele>1465.2</ele>
        <time>2013-08-08T08:39:44Z</time>
      </trkpt>
      <trkpt lat="42.45405" lon="2.06631">
        <ele>1464</ele>
        <time>2013-08-08T08:39:49Z</time>
      </trkpt>
      <trkpt lat="42.45405" lon="2.06637">
        <ele>1463.1</ele>
        <time>2013-08-08T08:39:53Z</time>
      </trkpt>
      <trkpt lat="42.45405" lon="2.06642">
        <ele>1462.6</ele>
        <time>2013-08-08T08:39:56Z</time>
      </trkpt>
      <trkpt lat="42.45405" lon="2.06648">
        <ele>1462.5</ele>
        <time>2013-08-08T08:40:00Z</time>
      </trkpt>
      <trkpt lat="42.45405" lon="2.06653">
        <ele>1461.4</ele>
        <time>2013-08-08T08:40:03Z</time>
      </trkpt>
      <trkpt lat="42.45404" lon="2.06657">
        <ele>1461.1</ele>
        <time>2013-08-08T08:40:06Z</time>
      </trkpt>
      <trkpt lat="42.45404" lon="2.06663">
        <ele>1461</ele>
        <time>2013-08-08T08:40:10Z</time>
      </trkpt>
      <trkpt lat="42.45404" lon="2.06668">
        <ele>1460.1</ele>
        <time>2013-08-08T08:40:15Z</time>
      </trkpt>
      <trkpt lat="42.45404" lon="2.06673">
        <ele>1459.4</ele>
        <time>2013-08-08T08:40:19Z</time>
      </trkpt>
      <trkpt lat="42.45403" lon="2.06678">
        <ele>1459.1</ele>
        <time>2013-08-08T08:40:23Z</time>
      </trkpt>
      <trkpt lat="42.45403" lon="2.06684">
        <ele>1459.3</ele>
        <time>2013-08-08T08:40:27Z</time>
      </trkpt>
      <trkpt lat="42.45402" lon="2.06689">
        <ele>1458.7</ele>
        <time>2013-08-08T08:40:31Z</time>
      </trkpt>
      <trkpt lat="42.454" lon="2.06694">
        <ele>1459.4</ele>
        <time>2013-08-08T08:40:35Z</time>
      </trkpt>
      <trkpt lat="42.45397" lon="2.06699">
        <ele>1459</ele>
        <time>2013-08-08T08:40:39Z</time>
      </trkpt>
      <trkpt lat="42.45397" lon="2.067">
        <ele>1459</ele>
        <time>2013-08-08T08:40:40Z</time>
      </trkpt>
      <trkpt lat="42.45394" lon="2.0671">
        <ele>1458.8</ele>
        <time>2013-08-08T08:40:53Z</time>
      </trkpt>
      <trkpt lat="42.45393" lon="2.06715">
        <ele>1458.7</ele>
        <time>2013-08-08T08:40:58Z</time>
      </trkpt>
      <trkpt lat="42.45391" lon="2.06719">
        <ele>1459.4</ele>
        <time>2013-08-08T08:41:03Z</time>
      </trkpt>
      <trkpt lat="42.4539" lon="2.06724">
        <ele>1459.1</ele>
        <time>2013-08-08T08:41:08Z</time>
      </trkpt>
      <trkpt lat="42.45388" lon="2.06729">
        <ele>1459.7</ele>
        <time>2013-08-08T08:41:15Z</time>
      </trkpt>
      <trkpt lat="42.45385" lon="2.06733">
        <ele>1461.5</ele>
        <time>2013-08-08T08:41:27Z</time>
      </trkpt>
      <trkpt lat="42.45382" lon="2.06736">
        <ele>1461.5</ele>
        <time>2013-08-08T08:41:32Z</time>
      </trkpt>
      <trkpt lat="42.45379" lon="2.0674">
        <ele>1462.2</ele>
        <time>2013-08-08T08:41:36Z</time>
      </trkpt>
      <trkpt lat="42.45378" lon="2.06745">
        <ele>1462.7</ele>
        <time>2013-08-08T08:41:45Z</time>
      </trkpt>
      <trkpt lat="42.45377" lon="2.06745">
        <ele>1463</ele>
        <time>2013-08-08T08:41:46Z</time>
      </trkpt>
      <trkpt lat="42.45377" lon="2.06755">
        <ele>1465</ele>
        <time>2013-08-08T08:41:55Z</time>
      </trkpt>
      <trkpt lat="42.45375" lon="2.0676">
        <ele>1466.3</ele>
        <time>2013-08-08T08:42:01Z</time>
      </trkpt>
      <trkpt lat="42.45375" lon="2.06764">
        <ele>1466.2</ele>
        <time>2013-08-08T08:42:04Z</time>
      </trkpt>
      <trkpt lat="42.45374" lon="2.06769">
        <ele>1466.3</ele>
        <time>2013-08-08T08:42:08Z</time>
      </trkpt>
      <trkpt lat="42.45372" lon="2.06774">
        <ele>1467.6</ele>
        <time>2013-08-08T08:42:12Z</time>
      </trkpt>
      <trkpt lat="42.4537" lon="2.06778">
        <ele>1467.6</ele>
        <time>2013-08-08T08:42:16Z</time>
      </trkpt>
      <trkpt lat="42.4537" lon="2.06783">
        <ele>1468.9</ele>
        <time>2013-08-08T08:42:19Z</time>
      </trkpt>
      <trkpt lat="42.45368" lon="2.06788">
        <ele>1469.9</ele>
        <time>2013-08-08T08:42:24Z</time>
      </trkpt>
      <trkpt lat="42.45367" lon="2.06794">
        <ele>1471.5</ele>
        <time>2013-08-08T08:42:36Z</time>
      </trkpt>
      <trkpt lat="42.45367" lon="2.06799">
        <ele>1473.6</ele>
        <time>2013-08-08T08:42:48Z</time>
      </trkpt>
      <trkpt lat="42.45368" lon="2.068">
        <ele>1473.8</ele>
        <time>2013-08-08T08:42:49Z</time>
      </trkpt>
      <trkpt lat="42.45363" lon="2.06809">
        <ele>1474.3</ele>
        <time>2013-08-08T08:43:01Z</time>
      </trkpt>
      <trkpt lat="42.4536" lon="2.06813">
        <ele>1476.2</ele>
        <time>2013-08-08T08:43:08Z</time>
      </trkpt>
      <trkpt lat="42.45357" lon="2.06818">
        <ele>1478.3</ele>
        <time>2013-08-08T08:43:16Z</time>
      </trkpt>
      <trkpt lat="42.45354" lon="2.06821">
        <ele>1479.2</ele>
        <time>2013-08-08T08:43:25Z</time>
      </trkpt>
      <trkpt lat="42.45352" lon="2.06825">
        <ele>1481.4</ele>
        <time>2013-08-08T08:43:50Z</time>
      </trkpt>
      <trkpt lat="42.45351" lon="2.06826">
        <ele>1481.9</ele>
        <time>2013-08-08T08:43:51Z</time>
      </trkpt>
      <trkpt lat="42.4534" lon="2.0685">
        <ele>1484.1</ele>
        <time>2013-08-08T08:44:20Z</time>
      </trkpt>
      <trkpt lat="42.45339" lon="2.06842">
        <ele>1483</ele>
        <time>2013-08-08T08:44:28Z</time>
      </trkpt>
      <trkpt lat="42.4535" lon="2.0683">
        <ele>1483</ele>
        <time>2013-08-08T08:44:44Z</time>
      </trkpt>
      <trkpt lat="42.4533" lon="2.06854">
        <ele>1484</ele>
        <time>2013-08-08T08:44:57Z</time>
      </trkpt>
      <trkpt lat="42.45324" lon="2.06867">
        <ele>1485.3</ele>
        <time>2013-08-08T08:45:02Z</time>
      </trkpt>
      <trkpt lat="42.45321" lon="2.06863">
        <ele>1487.6</ele>
        <time>2013-08-08T08:45:17Z</time>
      </trkpt>
      <trkpt lat="42.45324" lon="2.06868">
        <ele>1491</ele>
        <time>2013-08-08T08:45:34Z</time>
      </trkpt>
      <trkpt lat="42.45323" lon="2.06873">
        <ele>1494</ele>
        <time>2013-08-08T08:45:46Z</time>
      </trkpt>
      <trkpt lat="42.45321" lon="2.06878">
        <ele>1494.2</ele>
        <time>2013-08-08T08:45:53Z</time>
      </trkpt>
      <trkpt lat="42.4532" lon="2.06884">
        <ele>1496</ele>
        <time>2013-08-08T08:46:01Z</time>
      </trkpt>
      <trkpt lat="42.4532" lon="2.0689">
        <ele>1497</ele>
        <time>2013-08-08T08:46:06Z</time>
      </trkpt>
      <trkpt lat="42.4532" lon="2.06891">
        <ele>1497.2</ele>
        <time>2013-08-08T08:46:07Z</time>
      </trkpt>
      <trkpt lat="42.45316" lon="2.06898">
        <ele>1499</ele>
        <time>2013-08-08T08:46:14Z</time>
      </trkpt>
      <trkpt lat="42.45314" lon="2.06903">
        <ele>1500.2</ele>
        <time>2013-08-08T08:46:19Z</time>
      </trkpt>
      <trkpt lat="42.45313" lon="2.06909">
        <ele>1501.6</ele>
        <time>2013-08-08T08:46:23Z</time>
      </trkpt>
      <trkpt lat="42.45312" lon="2.06912">
        <ele>1500.8</ele>
        <time>2013-08-08T08:46:26Z</time>
      </trkpt>
      <trkpt lat="42.4531" lon="2.06917">
        <ele>1501.4</ele>
        <time>2013-08-08T08:46:30Z</time>
      </trkpt>
      <trkpt lat="42.45306" lon="2.0692">
        <ele>1502.3</ele>
        <time>2013-08-08T08:46:37Z</time>
      </trkpt>
      <trkpt lat="42.45302" lon="2.06921">
        <ele>1502.8</ele>
        <time>2013-08-08T08:46:43Z</time>
      </trkpt>
      <trkpt lat="42.45298" lon="2.06924">
        <ele>1504.8</ele>
        <time>2013-08-08T08:46:51Z</time>
      </trkpt>
      <trkpt lat="42.45294" lon="2.06924">
        <ele>1505.2</ele>
        <time>2013-08-08T08:46:58Z</time>
      </trkpt>
      <trkpt lat="42.4529" lon="2.06925">
        <ele>1506.8</ele>
        <time>2013-08-08T08:47:05Z</time>
      </trkpt>
      <trkpt lat="42.45286" lon="2.06926">
        <ele>1508.1</ele>
        <time>2013-08-08T08:47:19Z</time>
      </trkpt>
      <trkpt lat="42.45286" lon="2.06926">
        <ele>1508.1</ele>
        <time>2013-08-08T08:47:20Z</time>
      </trkpt>
      <trkpt lat="42.45278" lon="2.06927">
        <ele>1509.4</ele>
        <time>2013-08-08T08:47:31Z</time>
      </trkpt>
      <trkpt lat="42.45274" lon="2.06927">
        <ele>1510.7</ele>
        <time>2013-08-08T08:47:36Z</time>
      </trkpt>
      <trkpt lat="42.45271" lon="2.06931">
        <ele>1512.1</ele>
        <time>2013-08-08T08:47:42Z</time>
      </trkpt>
      <trkpt lat="42.45267" lon="2.06929">
        <ele>1513.1</ele>
        <time>2013-08-08T08:47:50Z</time>
      </trkpt>
      <trkpt lat="42.45262" lon="2.06927">
        <ele>1512.9</ele>
        <time>2013-08-08T08:47:57Z</time>
      </trkpt>
      <trkpt lat="42.45259" lon="2.06924">
        <ele>1512.4</ele>
        <time>2013-08-08T08:48:02Z</time>
      </trkpt>
      <trkpt lat="42.45261" lon="2.06919">
        <ele>1514.3</ele>
        <time>2013-08-08T08:48:38Z</time>
      </trkpt>
      <trkpt lat="42.45261" lon="2.06918">
        <ele>1514.3</ele>
        <time>2013-08-08T08:48:39Z</time>
      </trkpt>
      <trkpt lat="42.45255" lon="2.06911">
        <ele>1514.5</ele>
        <time>2013-08-08T08:49:23Z</time>
      </trkpt>
      <trkpt lat="42.45251" lon="2.06913">
        <ele>1514.8</ele>
        <time>2013-08-08T08:49:32Z</time>
      </trkpt>
      <trkpt lat="42.45246" lon="2.06914">
        <ele>1516.9</ele>
        <time>2013-08-08T08:49:43Z</time>
      </trkpt>
      <trkpt lat="42.45246" lon="2.06915">
        <ele>1517.1</ele>
        <time>2013-08-08T08:49:44Z</time>
      </trkpt>
      <trkpt lat="42.45241" lon="2.06918">
        <ele>1520.3</ele>
        <time>2013-08-08T08:50:10Z</time>
      </trkpt>
      <trkpt lat="42.45238" lon="2.06914">
        <ele>1521.9</ele>
        <time>2013-08-08T08:50:19Z</time>
      </trkpt>
      <trkpt lat="42.45235" lon="2.06911">
        <ele>1523</ele>
        <time>2013-08-08T08:50:24Z</time>
      </trkpt>
      <trkpt lat="42.45231" lon="2.06909">
        <ele>1523.5</ele>
        <time>2013-08-08T08:50:30Z</time>
      </trkpt>
      <trkpt lat="42.45228" lon="2.0691">
        <ele>1524.5</ele>
        <time>2013-08-08T08:50:35Z</time>
      </trkpt>
      <trkpt lat="42.45223" lon="2.06909">
        <ele>1524.6</ele>
        <time>2013-08-08T08:50:41Z</time>
      </trkpt>
      <trkpt lat="42.45219" lon="2.0691">
        <ele>1526.6</ele>
        <time>2013-08-08T08:50:47Z</time>
      </trkpt>
      <trkpt lat="42.45218" lon="2.06911">
        <ele>1526.8</ele>
        <time>2013-08-08T08:50:48Z</time>
      </trkpt>
      <trkpt lat="42.45212" lon="2.06913">
        <ele>1528</ele>
        <time>2013-08-08T08:51:01Z</time>
      </trkpt>
      <trkpt lat="42.45208" lon="2.06913">
        <ele>1528.5</ele>
        <time>2013-08-08T08:51:05Z</time>
      </trkpt>
      <trkpt lat="42.45203" lon="2.06912">
        <ele>1530.2</ele>
        <time>2013-08-08T08:51:12Z</time>
      </trkpt>
      <trkpt lat="42.452" lon="2.06909">
        <ele>1529.5</ele>
        <time>2013-08-08T08:51:20Z</time>
      </trkpt>
      <trkpt lat="42.45195" lon="2.06907">
        <ele>1532.1</ele>
        <time>2013-08-08T08:51:32Z</time>
      </trkpt>
      <trkpt lat="42.45191" lon="2.06905">
        <ele>1533.4</ele>
        <time>2013-08-08T08:51:45Z</time>
      </trkpt>
      <trkpt lat="42.45188" lon="2.06904">
        <ele>1534.8</ele>
        <time>2013-08-08T08:51:52Z</time>
      </trkpt>
      <trkpt lat="42.45187" lon="2.06905">
        <ele>1534.5</ele>
        <time>2013-08-08T08:51:53Z</time>
      </trkpt>
      <trkpt lat="42.4518" lon="2.06905">
        <ele>1537.3</ele>
        <time>2013-08-08T08:52:10Z</time>
      </trkpt>
      <trkpt lat="42.45175" lon="2.06906">
        <ele>1536.9</ele>
        <time>2013-08-08T08:52:17Z</time>
      </trkpt>
      <trkpt lat="42.45172" lon="2.06908">
        <ele>1537</ele>
        <time>2013-08-08T08:52:22Z</time>
      </trkpt>
      <trkpt lat="42.45169" lon="2.06912">
        <ele>1538.7</ele>
        <time>2013-08-08T08:52:29Z</time>
      </trkpt>
      <trkpt lat="42.45167" lon="2.06917">
        <ele>1540.5</ele>
        <time>2013-08-08T08:52:35Z</time>
      </trkpt>
      <trkpt lat="42.45165" lon="2.06921">
        <ele>1540.7</ele>
        <time>2013-08-08T08:52:41Z</time>
      </trkpt>
      <trkpt lat="42.45163" lon="2.06926">
        <ele>1541.7</ele>
        <time>2013-08-08T08:52:48Z</time>
      </trkpt>
      <trkpt lat="42.45159" lon="2.0693">
        <ele>1543.4</ele>
        <time>2013-08-08T08:52:57Z</time>
      </trkpt>
      <trkpt lat="42.45158" lon="2.0693">
        <ele>1543.6</ele>
        <time>2013-08-08T08:52:58Z</time>
      </trkpt>
      <trkpt lat="42.45153" lon="2.06939">
        <ele>1545.5</ele>
        <time>2013-08-08T08:53:20Z</time>
      </trkpt>
      <trkpt lat="42.4515" lon="2.06942">
        <ele>1545.4</ele>
        <time>2013-08-08T08:53:34Z</time>
      </trkpt>
      <trkpt lat="42.45147" lon="2.06946">
        <ele>1545.6</ele>
        <time>2013-08-08T08:53:40Z</time>
      </trkpt>
      <trkpt lat="42.45145" lon="2.06951">
        <ele>1547.3</ele>
        <time>2013-08-08T08:53:47Z</time>
      </trkpt>
      <trkpt lat="42.45143" lon="2.06956">
        <ele>1550.2</ele>
        <time>2013-08-08T08:54:01Z</time>
      </trkpt>
      <trkpt lat="42.45142" lon="2.06957">
        <ele>1550.2</ele>
        <time>2013-08-08T08:54:02Z</time>
      </trkpt>
      <trkpt lat="42.45137" lon="2.06964">
        <ele>1551.3</ele>
        <time>2013-08-08T08:54:14Z</time>
      </trkpt>
      <trkpt lat="42.45135" lon="2.06969">
        <ele>1553.3</ele>
        <time>2013-08-08T08:54:27Z</time>
      </trkpt>
      <trkpt lat="42.45132" lon="2.06973">
        <ele>1554.4</ele>
        <time>2013-08-08T08:54:35Z</time>
      </trkpt>
      <trkpt lat="42.45128" lon="2.06975">
        <ele>1555.3</ele>
        <time>2013-08-08T08:54:43Z</time>
      </trkpt>
      <trkpt lat="42.45126" lon="2.06981">
        <ele>1556.4</ele>
        <time>2013-08-08T08:55:21Z</time>
      </trkpt>
      <trkpt lat="42.45126" lon="2.06981">
        <ele>1556.6</ele>
        <time>2013-08-08T08:55:22Z</time>
      </trkpt>
      <trkpt lat="42.45118" lon="2.06986">
        <ele>1559.5</ele>
        <time>2013-08-08T08:55:56Z</time>
      </trkpt>
      <trkpt lat="42.45114" lon="2.06988">
        <ele>1560.7</ele>
        <time>2013-08-08T08:56:07Z</time>
      </trkpt>
      <trkpt lat="42.45111" lon="2.06992">
        <ele>1562.3</ele>
        <time>2013-08-08T08:56:20Z</time>
      </trkpt>
      <trkpt lat="42.45107" lon="2.06994">
        <ele>1564.4</ele>
        <time>2013-08-08T08:56:42Z</time>
      </trkpt>
      <trkpt lat="42.45107" lon="2.06995">
        <ele>1564.3</ele>
        <time>2013-08-08T08:56:43Z</time>
      </trkpt>
      <trkpt lat="42.45099" lon="2.07">
        <ele>1566</ele>
        <time>2013-08-08T08:57:14Z</time>
      </trkpt>
      <trkpt lat="42.45095" lon="2.07">
        <ele>1567.4</ele>
        <time>2013-08-08T08:57:23Z</time>
      </trkpt>
      <trkpt lat="42.45092" lon="2.07002">
        <ele>1568.5</ele>
        <time>2013-08-08T08:57:32Z</time>
      </trkpt>
      <trkpt lat="42.45088" lon="2.07006">
        <ele>1570.3</ele>
        <time>2013-08-08T08:57:39Z</time>
      </trkpt>
      <trkpt lat="42.45085" lon="2.07009">
        <ele>1571.8</ele>
        <time>2013-08-08T08:57:49Z</time>
      </trkpt>
      <trkpt lat="42.45084" lon="2.07009">
        <ele>1571.7</ele>
        <time>2013-08-08T08:57:50Z</time>
      </trkpt>
      <trkpt lat="42.45077" lon="2.07014">
        <ele>1574.4</ele>
        <time>2013-08-08T08:58:04Z</time>
      </trkpt>
      <trkpt lat="42.45076" lon="2.07019">
        <ele>1576.1</ele>
        <time>2013-08-08T08:58:22Z</time>
      </trkpt>
      <trkpt lat="42.45073" lon="2.07024">
        <ele>1576.6</ele>
        <time>2013-08-08T08:58:29Z</time>
      </trkpt>
      <trkpt lat="42.4507" lon="2.07028">
        <ele>1577.6</ele>
        <time>2013-08-08T08:58:39Z</time>
      </trkpt>
      <trkpt lat="42.45068" lon="2.07033">
        <ele>1578.9</ele>
        <time>2013-08-08T08:58:47Z</time>
      </trkpt>
      <trkpt lat="42.45066" lon="2.07038">
        <ele>1579.3</ele>
        <time>2013-08-08T08:58:53Z</time>
      </trkpt>
      <trkpt lat="42.45065" lon="2.07039">
        <ele>1579.3</ele>
        <time>2013-08-08T08:58:54Z</time>
      </trkpt>
      <trkpt lat="42.4506" lon="2.07045">
        <ele>1580.1</ele>
        <time>2013-08-08T08:59:07Z</time>
      </trkpt>
      <trkpt lat="42.45058" lon="2.07051">
        <ele>1581</ele>
        <time>2013-08-08T08:59:12Z</time>
      </trkpt>
      <trkpt lat="42.45056" lon="2.07055">
        <ele>1581.8</ele>
        <time>2013-08-08T08:59:17Z</time>
      </trkpt>
      <trkpt lat="42.45052" lon="2.07059">
        <ele>1582.4</ele>
        <time>2013-08-08T08:59:23Z</time>
      </trkpt>
      <trkpt lat="42.45048" lon="2.07061">
        <ele>1582.8</ele>
        <time>2013-08-08T08:59:30Z</time>
      </trkpt>
      <trkpt lat="42.45053" lon="2.07061">
        <ele>1582.4</ele>
        <time>2013-08-08T09:00:27Z</time>
      </trkpt>
      <trkpt lat="42.45054" lon="2.07061">
        <ele>1582.4</ele>
        <time>2013-08-08T09:00:28Z</time>
      </trkpt>
      <trkpt lat="42.45051" lon="2.07068">
        <ele>1582.2</ele>
        <time>2013-08-08T09:01:41Z</time>
      </trkpt>
      <trkpt lat="42.4505" lon="2.07077">
        <ele>1582.1</ele>
        <time>2013-08-08T09:01:49Z</time>
      </trkpt>
      <trkpt lat="42.45049" lon="2.07082">
        <ele>1581.8</ele>
        <time>2013-08-08T09:01:53Z</time>
      </trkpt>
      <trkpt lat="42.45049" lon="2.07088">
        <ele>1581.7</ele>
        <time>2013-08-08T09:01:57Z</time>
      </trkpt>
      <trkpt lat="42.45049" lon="2.07094">
        <ele>1581.8</ele>
        <time>2013-08-08T09:02:02Z</time>
      </trkpt>
      <trkpt lat="42.45049" lon="2.071">
        <ele>1581.5</ele>
        <time>2013-08-08T09:02:05Z</time>
      </trkpt>
      <trkpt lat="42.45048" lon="2.07105">
        <ele>1581.4</ele>
        <time>2013-08-08T09:02:09Z</time>
      </trkpt>
      <trkpt lat="42.45047" lon="2.07111">
        <ele>1581.3</ele>
        <time>2013-08-08T09:02:14Z</time>
      </trkpt>
      <trkpt lat="42.45046" lon="2.07115">
        <ele>1580.9</ele>
        <time>2013-08-08T09:02:17Z</time>
      </trkpt>
      <trkpt lat="42.45046" lon="2.0712">
        <ele>1580.8</ele>
        <time>2013-08-08T09:02:20Z</time>
      </trkpt>
      <trkpt lat="42.45045" lon="2.07125">
        <ele>1581.1</ele>
        <time>2013-08-08T09:02:24Z</time>
      </trkpt>
      <trkpt lat="42.45043" lon="2.0713">
        <ele>1580.7</ele>
        <time>2013-08-08T09:02:27Z</time>
      </trkpt>
      <trkpt lat="42.45042" lon="2.07135">
        <ele>1581.1</ele>
        <time>2013-08-08T09:02:39Z</time>
      </trkpt>
      <trkpt lat="42.4504" lon="2.07139">
        <ele>1580.9</ele>
        <time>2013-08-08T09:02:43Z</time>
      </trkpt>
      <trkpt lat="42.45039" lon="2.07141">
        <ele>1581.2</ele>
        <time>2013-08-08T09:02:44Z</time>
      </trkpt>
      <trkpt lat="42.45036" lon="2.0715">
        <ele>1580.9</ele>
        <time>2013-08-08T09:02:51Z</time>
      </trkpt>
      <trkpt lat="42.45034" lon="2.07155">
        <ele>1579.6</ele>
        <time>2013-08-08T09:02:55Z</time>
      </trkpt>
      <trkpt lat="42.45032" lon="2.07159">
        <ele>1579.7</ele>
        <time>2013-08-08T09:02:59Z</time>
      </trkpt>
      <trkpt lat="42.4503" lon="2.07163">
        <ele>1579.5</ele>
        <time>2013-08-08T09:03:02Z</time>
      </trkpt>
      <trkpt lat="42.45028" lon="2.07168">
        <ele>1580.2</ele>
        <time>2013-08-08T09:03:05Z</time>
      </trkpt>
      <trkpt lat="42.45025" lon="2.07171">
        <ele>1579.8</ele>
        <time>2013-08-08T09:03:09Z</time>
      </trkpt>
      <trkpt lat="42.45022" lon="2.07174">
        <ele>1580.3</ele>
        <time>2013-08-08T09:03:13Z</time>
      </trkpt>
      <trkpt lat="42.4502" lon="2.07178">
        <ele>1580.8</ele>
        <time>2013-08-08T09:03:17Z</time>
      </trkpt>
      <trkpt lat="42.45018" lon="2.07182">
        <ele>1580</ele>
        <time>2013-08-08T09:03:20Z</time>
      </trkpt>
      <trkpt lat="42.45016" lon="2.07187">
        <ele>1579.7</ele>
        <time>2013-08-08T09:03:23Z</time>
      </trkpt>
      <trkpt lat="42.45014" lon="2.0719">
        <ele>1580.1</ele>
        <time>2013-08-08T09:03:26Z</time>
      </trkpt>
      <trkpt lat="42.45011" lon="2.07194">
        <ele>1580.6</ele>
        <time>2013-08-08T09:03:30Z</time>
      </trkpt>
      <trkpt lat="42.45008" lon="2.07198">
        <ele>1579.8</ele>
        <time>2013-08-08T09:03:34Z</time>
      </trkpt>
      <trkpt lat="42.45006" lon="2.07201">
        <ele>1580.3</ele>
        <time>2013-08-08T09:03:38Z</time>
      </trkpt>
      <trkpt lat="42.45003" lon="2.07203">
        <ele>1580.7</ele>
        <time>2013-08-08T09:03:41Z</time>
      </trkpt>
      <trkpt lat="42.44999" lon="2.07207">
        <ele>1580.8</ele>
        <time>2013-08-08T09:03:45Z</time>
      </trkpt>
      <trkpt lat="42.44998" lon="2.07208">
        <ele>1580.8</ele>
        <time>2013-08-08T09:03:46Z</time>
      </trkpt>
      <trkpt lat="42.44992" lon="2.07213">
        <ele>1581</ele>
        <time>2013-08-08T09:03:52Z</time>
      </trkpt>
      <trkpt lat="42.44989" lon="2.07216">
        <ele>1581.3</ele>
        <time>2013-08-08T09:03:55Z</time>
      </trkpt>
      <trkpt lat="42.44987" lon="2.07219">
        <ele>1580.8</ele>
        <time>2013-08-08T09:03:58Z</time>
      </trkpt>
      <trkpt lat="42.44983" lon="2.07221">
        <ele>1580.9</ele>
        <time>2013-08-08T09:04:01Z</time>
      </trkpt>
      <trkpt lat="42.4498" lon="2.07225">
        <ele>1580.6</ele>
        <time>2013-08-08T09:04:07Z</time>
      </trkpt>
      <trkpt lat="42.44978" lon="2.0723">
        <ele>1581</ele>
        <time>2013-08-08T09:04:16Z</time>
      </trkpt>
      <trkpt lat="42.44976" lon="2.07235">
        <ele>1580.4</ele>
        <time>2013-08-08T09:04:20Z</time>
      </trkpt>
      <trkpt lat="42.44975" lon="2.0724">
        <ele>1580.3</ele>
        <time>2013-08-08T09:04:24Z</time>
      </trkpt>
      <trkpt lat="42.44974" lon="2.07246">
        <ele>1580</ele>
        <time>2013-08-08T09:04:27Z</time>
      </trkpt>
      <trkpt lat="42.44975" lon="2.0725">
        <ele>1580.1</ele>
        <time>2013-08-08T09:04:29Z</time>
      </trkpt>
      <trkpt lat="42.44976" lon="2.07256">
        <ele>1580.2</ele>
        <time>2013-08-08T09:04:32Z</time>
      </trkpt>
      <trkpt lat="42.44976" lon="2.07261">
        <ele>1580</ele>
        <time>2013-08-08T09:04:35Z</time>
      </trkpt>
      <trkpt lat="42.44977" lon="2.07265">
        <ele>1580.3</ele>
        <time>2013-08-08T09:04:37Z</time>
      </trkpt>
      <trkpt lat="42.44977" lon="2.07271">
        <ele>1580</ele>
        <time>2013-08-08T09:04:40Z</time>
      </trkpt>
      <trkpt lat="42.44977" lon="2.07276">
        <ele>1579.5</ele>
        <time>2013-08-08T09:04:43Z</time>
      </trkpt>
      <trkpt lat="42.44977" lon="2.07281">
        <ele>1578.8</ele>
        <time>2013-08-08T09:04:46Z</time>
      </trkpt>
      <trkpt lat="42.44977" lon="2.07282">
        <ele>1578.7</ele>
        <time>2013-08-08T09:04:47Z</time>
      </trkpt>
      <trkpt lat="42.44977" lon="2.07291">
        <ele>1577.3</ele>
        <time>2013-08-08T09:04:53Z</time>
      </trkpt>
      <trkpt lat="42.44976" lon="2.07296">
        <ele>1577.5</ele>
        <time>2013-08-08T09:04:56Z</time>
      </trkpt>
      <trkpt lat="42.44974" lon="2.073">
        <ele>1577.3</ele>
        <time>2013-08-08T09:05:00Z</time>
      </trkpt>
      <trkpt lat="42.4497" lon="2.07304">
        <ele>1577.3</ele>
        <time>2013-08-08T09:05:04Z</time>
      </trkpt>
      <trkpt lat="42.44967" lon="2.07308">
        <ele>1577</ele>
        <time>2013-08-08T09:05:08Z</time>
      </trkpt>
      <trkpt lat="42.44965" lon="2.07312">
        <ele>1576.9</ele>
        <time>2013-08-08T09:05:11Z</time>
      </trkpt>
      <trkpt lat="42.44962" lon="2.07315">
        <ele>1577.3</ele>
        <time>2013-08-08T09:05:14Z</time>
      </trkpt>
      <trkpt lat="42.44959" lon="2.07319">
        <ele>1577.6</ele>
        <time>2013-08-08T09:05:18Z</time>
      </trkpt>
      <trkpt lat="42.44957" lon="2.07322">
        <ele>1577.4</ele>
        <time>2013-08-08T09:05:21Z</time>
      </trkpt>
      <trkpt lat="42.44955" lon="2.07327">
        <ele>1577.5</ele>
        <time>2013-08-08T09:05:24Z</time>
      </trkpt>
      <trkpt lat="42.44954" lon="2.07332">
        <ele>1577.6</ele>
        <time>2013-08-08T09:05:27Z</time>
      </trkpt>
      <trkpt lat="42.44954" lon="2.07337">
        <ele>1577.7</ele>
        <time>2013-08-08T09:05:30Z</time>
      </trkpt>
      <trkpt lat="42.44954" lon="2.07342">
        <ele>1577.8</ele>
        <time>2013-08-08T09:05:33Z</time>
      </trkpt>
      <trkpt lat="42.44954" lon="2.07347">
        <ele>1577.7</ele>
        <time>2013-08-08T09:05:36Z</time>
      </trkpt>
      <trkpt lat="42.44953" lon="2.07351">
        <ele>1577.9</ele>
        <time>2013-08-08T09:05:39Z</time>
      </trkpt>
      <trkpt lat="42.44953" lon="2.07357">
        <ele>1578.1</ele>
        <time>2013-08-08T09:05:42Z</time>
      </trkpt>
      <trkpt lat="42.44954" lon="2.07362">
        <ele>1577.6</ele>
        <time>2013-08-08T09:05:45Z</time>
      </trkpt>
      <trkpt lat="42.44955" lon="2.07368">
        <ele>1577</ele>
        <time>2013-08-08T09:05:48Z</time>
      </trkpt>
      <trkpt lat="42.44955" lon="2.07369">
        <ele>1577</ele>
        <time>2013-08-08T09:05:49Z</time>
      </trkpt>
      <trkpt lat="42.44953" lon="2.07379">
        <ele>1576.7</ele>
        <time>2013-08-08T09:05:57Z</time>
      </trkpt>
      <trkpt lat="42.44952" lon="2.07385">
        <ele>1577.2</ele>
        <time>2013-08-08T09:06:01Z</time>
      </trkpt>
      <trkpt lat="42.4495" lon="2.07389">
        <ele>1576.6</ele>
        <time>2013-08-08T09:06:05Z</time>
      </trkpt>
      <trkpt lat="42.44947" lon="2.07391">
        <ele>1576.3</ele>
        <time>2013-08-08T09:06:08Z</time>
      </trkpt>
      <trkpt lat="42.44944" lon="2.07394">
        <ele>1576.6</ele>
        <time>2013-08-08T09:06:12Z</time>
      </trkpt>
      <trkpt lat="42.44941" lon="2.07398">
        <ele>1576.4</ele>
        <time>2013-08-08T09:06:15Z</time>
      </trkpt>
      <trkpt lat="42.44938" lon="2.07402">
        <ele>1576.1</ele>
        <time>2013-08-08T09:06:18Z</time>
      </trkpt>
      <trkpt lat="42.44935" lon="2.07405">
        <ele>1576.8</ele>
        <time>2013-08-08T09:06:23Z</time>
      </trkpt>
      <trkpt lat="42.44931" lon="2.07409">
        <ele>1576.6</ele>
        <time>2013-08-08T09:06:27Z</time>
      </trkpt>
      <trkpt lat="42.44928" lon="2.07412">
        <ele>1577.1</ele>
        <time>2013-08-08T09:06:31Z</time>
      </trkpt>
      <trkpt lat="42.44925" lon="2.07416">
        <ele>1577.4</ele>
        <time>2013-08-08T09:06:36Z</time>
      </trkpt>
      <trkpt lat="42.44921" lon="2.07419">
        <ele>1577.5</ele>
        <time>2013-08-08T09:06:40Z</time>
      </trkpt>
      <trkpt lat="42.44918" lon="2.07422">
        <ele>1577.1</ele>
        <time>2013-08-08T09:06:45Z</time>
      </trkpt>
      <trkpt lat="42.44912" lon="2.07419">
        <ele>1575</ele>
        <time>2013-08-08T09:07:10Z</time>
      </trkpt>
      <trkpt lat="42.44912" lon="2.07418">
        <ele>1576</ele>
        <time>2013-08-08T09:07:12Z</time>
      </trkpt>
      <trkpt lat="42.44918" lon="2.07426">
        <ele>1576.5</ele>
        <time>2013-08-08T09:07:56Z</time>
      </trkpt>
      <trkpt lat="42.44918" lon="2.07431">
        <ele>1577.3</ele>
        <time>2013-08-08T09:08:01Z</time>
      </trkpt>
      <trkpt lat="42.44915" lon="2.07435">
        <ele>1577.2</ele>
        <time>2013-08-08T09:08:04Z</time>
      </trkpt>
      <trkpt lat="42.44912" lon="2.07439">
        <ele>1576.8</ele>
        <time>2013-08-08T09:08:07Z</time>
      </trkpt>
      <trkpt lat="42.44909" lon="2.07443">
        <ele>1577.4</ele>
        <time>2013-08-08T09:08:10Z</time>
      </trkpt>
      <trkpt lat="42.44906" lon="2.07446">
        <ele>1577</ele>
        <time>2013-08-08T09:08:13Z</time>
      </trkpt>
      <trkpt lat="42.44905" lon="2.07446">
        <ele>1576.8</ele>
        <time>2013-08-08T09:08:14Z</time>
      </trkpt>
      <trkpt lat="42.449" lon="2.07448">
        <ele>1577.2</ele>
        <time>2013-08-08T09:08:18Z</time>
      </trkpt>
      <trkpt lat="42.44897" lon="2.0745">
        <ele>1576.6</ele>
        <time>2013-08-08T09:08:20Z</time>
      </trkpt>
      <trkpt lat="42.44893" lon="2.07451">
        <ele>1576.4</ele>
        <time>2013-08-08T09:08:22Z</time>
      </trkpt>
      <trkpt lat="42.4489" lon="2.07452">
        <ele>1576.3</ele>
        <time>2013-08-08T09:08:24Z</time>
      </trkpt>
      <trkpt lat="42.44886" lon="2.07453">
        <ele>1575.5</ele>
        <time>2013-08-08T09:08:26Z</time>
      </trkpt>
      <trkpt lat="42.44882" lon="2.07454">
        <ele>1575.7</ele>
        <time>2013-08-08T09:08:28Z</time>
      </trkpt>
      <trkpt lat="42.44879" lon="2.07456">
        <ele>1576.3</ele>
        <time>2013-08-08T09:08:31Z</time>
      </trkpt>
      <trkpt lat="42.44875" lon="2.07458">
        <ele>1576.9</ele>
        <time>2013-08-08T09:08:34Z</time>
      </trkpt>
      <trkpt lat="42.44871" lon="2.0746">
        <ele>1576</ele>
        <time>2013-08-08T09:08:37Z</time>
      </trkpt>
      <trkpt lat="42.44867" lon="2.07461">
        <ele>1576.3</ele>
        <time>2013-08-08T09:08:40Z</time>
      </trkpt>
      <trkpt lat="42.44864" lon="2.07463">
        <ele>1576.6</ele>
        <time>2013-08-08T09:08:43Z</time>
      </trkpt>
      <trkpt lat="42.4486" lon="2.07464">
        <ele>1576.3</ele>
        <time>2013-08-08T09:08:46Z</time>
      </trkpt>
      <trkpt lat="42.44857" lon="2.07466">
        <ele>1576</ele>
        <time>2013-08-08T09:08:49Z</time>
      </trkpt>
      <trkpt lat="42.44853" lon="2.07467">
        <ele>1575.8</ele>
        <time>2013-08-08T09:08:53Z</time>
      </trkpt>
      <trkpt lat="42.44849" lon="2.07469">
        <ele>1575.7</ele>
        <time>2013-08-08T09:08:56Z</time>
      </trkpt>
      <trkpt lat="42.44845" lon="2.07469">
        <ele>1575.5</ele>
        <time>2013-08-08T09:09:00Z</time>
      </trkpt>
      <trkpt lat="42.44842" lon="2.0747">
        <ele>1575.7</ele>
        <time>2013-08-08T09:09:04Z</time>
      </trkpt>
      <trkpt lat="42.44838" lon="2.07471">
        <ele>1575.7</ele>
        <time>2013-08-08T09:09:08Z</time>
      </trkpt>
      <trkpt lat="42.44834" lon="2.07471">
        <ele>1575.2</ele>
        <time>2013-08-08T09:09:11Z</time>
      </trkpt>
      <trkpt lat="42.44831" lon="2.07473">
        <ele>1575.4</ele>
        <time>2013-08-08T09:09:14Z</time>
      </trkpt>
      <trkpt lat="42.4483" lon="2.07474">
        <ele>1575.6</ele>
        <time>2013-08-08T09:09:15Z</time>
      </trkpt>
      <trkpt lat="42.44823" lon="2.07474">
        <ele>1575.9</ele>
        <time>2013-08-08T09:09:20Z</time>
      </trkpt>
      <trkpt lat="42.44819" lon="2.07476">
        <ele>1576.6</ele>
        <time>2013-08-08T09:09:23Z</time>
      </trkpt>
      <trkpt lat="42.44816" lon="2.07475">
        <ele>1576.7</ele>
        <time>2013-08-08T09:09:26Z</time>
      </trkpt>
      <trkpt lat="42.44812" lon="2.07476">
        <ele>1576.4</ele>
        <time>2013-08-08T09:09:29Z</time>
      </trkpt>
      <trkpt lat="42.44809" lon="2.07477">
        <ele>1576.9</ele>
        <time>2013-08-08T09:09:33Z</time>
      </trkpt>
      <trkpt lat="42.44805" lon="2.07479">
        <ele>1576.9</ele>
        <time>2013-08-08T09:09:36Z</time>
      </trkpt>
      <trkpt lat="42.44802" lon="2.07479">
        <ele>1576</ele>
        <time>2013-08-08T09:09:43Z</time>
      </trkpt>
      <trkpt lat="42.44798" lon="2.0748">
        <ele>1576.4</ele>
        <time>2013-08-08T09:09:47Z</time>
      </trkpt>
      <trkpt lat="42.44793" lon="2.0748">
        <ele>1576</ele>
        <time>2013-08-08T09:09:51Z</time>
      </trkpt>
      <trkpt lat="42.4479" lon="2.07481">
        <ele>1575.8</ele>
        <time>2013-08-08T09:09:54Z</time>
      </trkpt>
      <trkpt lat="42.44786" lon="2.07481">
        <ele>1576.7</ele>
        <time>2013-08-08T09:09:59Z</time>
      </trkpt>
      <trkpt lat="42.44781" lon="2.07481">
        <ele>1578</ele>
        <time>2013-08-08T09:10:05Z</time>
      </trkpt>
      <trkpt lat="42.44777" lon="2.07481">
        <ele>1576.8</ele>
        <time>2013-08-08T09:10:13Z</time>
      </trkpt>
      <trkpt lat="42.44773" lon="2.07482">
        <ele>1577.3</ele>
        <time>2013-08-08T09:10:17Z</time>
      </trkpt>
      <trkpt lat="42.44772" lon="2.07482">
        <ele>1577.1</ele>
        <time>2013-08-08T09:10:18Z</time>
      </trkpt>
      <trkpt lat="42.44765" lon="2.07484">
        <ele>1577.6</ele>
        <time>2013-08-08T09:10:25Z</time>
      </trkpt>
      <trkpt lat="42.44762" lon="2.07484">
        <ele>1577.4</ele>
        <time>2013-08-08T09:10:28Z</time>
      </trkpt>
      <trkpt lat="42.44758" lon="2.07484">
        <ele>1577.8</ele>
        <time>2013-08-08T09:10:31Z</time>
      </trkpt>
      <trkpt lat="42.44754" lon="2.07485">
        <ele>1578.3</ele>
        <time>2013-08-08T09:10:34Z</time>
      </trkpt>
      <trkpt lat="42.4475" lon="2.07485">
        <ele>1577.9</ele>
        <time>2013-08-08T09:10:37Z</time>
      </trkpt>
      <trkpt lat="42.44747" lon="2.07485">
        <ele>1578</ele>
        <time>2013-08-08T09:10:40Z</time>
      </trkpt>
      <trkpt lat="42.44743" lon="2.07485">
        <ele>1578</ele>
        <time>2013-08-08T09:10:43Z</time>
      </trkpt>
      <trkpt lat="42.44739" lon="2.07484">
        <ele>1578</ele>
        <time>2013-08-08T09:10:47Z</time>
      </trkpt>
      <trkpt lat="42.44735" lon="2.07484">
        <ele>1578.6</ele>
        <time>2013-08-08T09:10:51Z</time>
      </trkpt>
      <trkpt lat="42.44732" lon="2.07484">
        <ele>1579.2</ele>
        <time>2013-08-08T09:10:54Z</time>
      </trkpt>
      <trkpt lat="42.44727" lon="2.07483">
        <ele>1578.7</ele>
        <time>2013-08-08T09:10:59Z</time>
      </trkpt>
      <trkpt lat="42.44724" lon="2.07481">
        <ele>1578.9</ele>
        <time>2013-08-08T09:11:02Z</time>
      </trkpt>
      <trkpt lat="42.44719" lon="2.07482">
        <ele>1579.4</ele>
        <time>2013-08-08T09:11:06Z</time>
      </trkpt>
      <trkpt lat="42.44716" lon="2.07482">
        <ele>1579.4</ele>
        <time>2013-08-08T09:11:09Z</time>
      </trkpt>
      <trkpt lat="42.44712" lon="2.07483">
        <ele>1579.4</ele>
        <time>2013-08-08T09:11:13Z</time>
      </trkpt>
      <trkpt lat="42.44708" lon="2.07482">
        <ele>1579.5</ele>
        <time>2013-08-08T09:11:17Z</time>
      </trkpt>
      <trkpt lat="42.44703" lon="2.07482">
        <ele>1580.1</ele>
        <time>2013-08-08T09:11:21Z</time>
      </trkpt>
      <trkpt lat="42.44702" lon="2.07482">
        <ele>1580.3</ele>
        <time>2013-08-08T09:11:22Z</time>
      </trkpt>
      <trkpt lat="42.44696" lon="2.0748">
        <ele>1581</ele>
        <time>2013-08-08T09:11:28Z</time>
      </trkpt>
      <trkpt lat="42.44692" lon="2.0748">
        <ele>1581.8</ele>
        <time>2013-08-08T09:11:32Z</time>
      </trkpt>
      <trkpt lat="42.44689" lon="2.0748">
        <ele>1581.5</ele>
        <time>2013-08-08T09:11:35Z</time>
      </trkpt>
      <trkpt lat="42.44685" lon="2.07478">
        <ele>1581.5</ele>
        <time>2013-08-08T09:11:38Z</time>
      </trkpt>
      <trkpt lat="42.44681" lon="2.07478">
        <ele>1581.7</ele>
        <time>2013-08-08T09:11:42Z</time>
      </trkpt>
      <trkpt lat="42.44677" lon="2.07481">
        <ele>1581.9</ele>
        <time>2013-08-08T09:11:48Z</time>
      </trkpt>
      <trkpt lat="42.44673" lon="2.07482">
        <ele>1581.9</ele>
        <time>2013-08-08T09:11:54Z</time>
      </trkpt>
      <trkpt lat="42.44669" lon="2.07486">
        <ele>1582.4</ele>
        <time>2013-08-08T09:11:58Z</time>
      </trkpt>
      <trkpt lat="42.44667" lon="2.0749">
        <ele>1582.4</ele>
        <time>2013-08-08T09:12:01Z</time>
      </trkpt>
      <trkpt lat="42.44665" lon="2.07495">
        <ele>1582.2</ele>
        <time>2013-08-08T09:12:05Z</time>
      </trkpt>
      <trkpt lat="42.44663" lon="2.075">
        <ele>1582.1</ele>
        <time>2013-08-08T09:12:08Z</time>
      </trkpt>
      <trkpt lat="42.44662" lon="2.07505">
        <ele>1581.9</ele>
        <time>2013-08-08T09:12:11Z</time>
      </trkpt>
      <trkpt lat="42.44661" lon="2.0751">
        <ele>1581.3</ele>
        <time>2013-08-08T09:12:14Z</time>
      </trkpt>
      <trkpt lat="42.44658" lon="2.07515">
        <ele>1581.5</ele>
        <time>2013-08-08T09:12:18Z</time>
      </trkpt>
      <trkpt lat="42.44655" lon="2.07517">
        <ele>1581.2</ele>
        <time>2013-08-08T09:12:21Z</time>
      </trkpt>
      <trkpt lat="42.44652" lon="2.0752">
        <ele>1580.8</ele>
        <time>2013-08-08T09:12:24Z</time>
      </trkpt>
      <trkpt lat="42.4465" lon="2.0752">
        <ele>1580.9</ele>
        <time>2013-08-08T09:12:25Z</time>
      </trkpt>
      <trkpt lat="42.44643" lon="2.07522">
        <ele>1580.6</ele>
        <time>2013-08-08T09:12:30Z</time>
      </trkpt>
      <trkpt lat="42.4464" lon="2.07524">
        <ele>1581.1</ele>
        <time>2013-08-08T09:12:33Z</time>
      </trkpt>
      <trkpt lat="42.44636" lon="2.07527">
        <ele>1580.6</ele>
        <time>2013-08-08T09:12:37Z</time>
      </trkpt>
      <trkpt lat="42.44632" lon="2.07526">
        <ele>1580.6</ele>
        <time>2013-08-08T09:12:41Z</time>
      </trkpt>
      <trkpt lat="42.44629" lon="2.07529">
        <ele>1580.3</ele>
        <time>2013-08-08T09:12:50Z</time>
      </trkpt>
      <trkpt lat="42.44634" lon="2.07535">
        <ele>1580</ele>
        <time>2013-08-08T09:13:39Z</time>
      </trkpt>
      <trkpt lat="42.44626" lon="2.07514">
        <ele>1580.5</ele>
        <time>2013-08-08T09:13:47Z</time>
      </trkpt>
      <trkpt lat="42.44625" lon="2.07523">
        <ele>1580.6</ele>
        <time>2013-08-08T09:13:56Z</time>
      </trkpt>
      <trkpt lat="42.44624" lon="2.07527">
        <ele>1580.6</ele>
        <time>2013-08-08T09:13:59Z</time>
      </trkpt>
      <trkpt lat="42.44622" lon="2.07532">
        <ele>1580.8</ele>
        <time>2013-08-08T09:14:01Z</time>
      </trkpt>
      <trkpt lat="42.44621" lon="2.07537">
        <ele>1580.9</ele>
        <time>2013-08-08T09:14:04Z</time>
      </trkpt>
      <trkpt lat="42.44619" lon="2.0754">
        <ele>1581</ele>
        <time>2013-08-08T09:14:06Z</time>
      </trkpt>
      <trkpt lat="42.44618" lon="2.07543">
        <ele>1580.9</ele>
        <time>2013-08-08T09:14:07Z</time>
      </trkpt>
      <trkpt lat="42.44616" lon="2.07546">
        <ele>1580.8</ele>
        <time>2013-08-08T09:14:08Z</time>
      </trkpt>
      <trkpt lat="42.44615" lon="2.07549">
        <ele>1580.7</ele>
        <time>2013-08-08T09:14:09Z</time>
      </trkpt>
      <trkpt lat="42.44614" lon="2.07553">
        <ele>1580.5</ele>
        <time>2013-08-08T09:14:10Z</time>
      </trkpt>
      <trkpt lat="42.44611" lon="2.07555">
        <ele>1580.3</ele>
        <time>2013-08-08T09:14:11Z</time>
      </trkpt>
      <trkpt lat="42.44609" lon="2.07558">
        <ele>1580.2</ele>
        <time>2013-08-08T09:14:12Z</time>
      </trkpt>
      <trkpt lat="42.44607" lon="2.0756">
        <ele>1580.4</ele>
        <time>2013-08-08T09:14:13Z</time>
      </trkpt>
      <trkpt lat="42.44605" lon="2.07562">
        <ele>1580.5</ele>
        <time>2013-08-08T09:14:14Z</time>
      </trkpt>
      <trkpt lat="42.44604" lon="2.07564">
        <ele>1580.6</ele>
        <time>2013-08-08T09:14:15Z</time>
      </trkpt>
      <trkpt lat="42.44602" lon="2.07568">
        <ele>1580.2</ele>
        <time>2013-08-08T09:14:16Z</time>
      </trkpt>
      <trkpt lat="42.446" lon="2.07572">
        <ele>1579.9</ele>
        <time>2013-08-08T09:14:17Z</time>
      </trkpt>
      <trkpt lat="42.44599" lon="2.07575">
        <ele>1579.6</ele>
        <time>2013-08-08T09:14:18Z</time>
      </trkpt>
      <trkpt lat="42.44598" lon="2.0758">
        <ele>1579.5</ele>
        <time>2013-08-08T09:14:19Z</time>
      </trkpt>
      <trkpt lat="42.44596" lon="2.07584">
        <ele>1579.7</ele>
        <time>2013-08-08T09:14:20Z</time>
      </trkpt>
      <trkpt lat="42.44595" lon="2.07589">
        <ele>1579.9</ele>
        <time>2013-08-08T09:14:21Z</time>
      </trkpt>
      <trkpt lat="42.44594" lon="2.07593">
        <ele>1580</ele>
        <time>2013-08-08T09:14:22Z</time>
      </trkpt>
      <trkpt lat="42.44593" lon="2.07598">
        <ele>1579.8</ele>
        <time>2013-08-08T09:14:23Z</time>
      </trkpt>
      <trkpt lat="42.44591" lon="2.07602">
        <ele>1579.6</ele>
        <time>2013-08-08T09:14:24Z</time>
      </trkpt>
      <trkpt lat="42.44589" lon="2.07605">
        <ele>1579.5</ele>
        <time>2013-08-08T09:14:25Z</time>
      </trkpt>
      <trkpt lat="42.44588" lon="2.07608">
        <ele>1579.4</ele>
        <time>2013-08-08T09:14:26Z</time>
      </trkpt>
      <trkpt lat="42.44587" lon="2.07612">
        <ele>1579.2</ele>
        <time>2013-08-08T09:14:27Z</time>
      </trkpt>
      <trkpt lat="42.44584" lon="2.07616">
        <ele>1579.2</ele>
        <time>2013-08-08T09:14:29Z</time>
      </trkpt>
      <trkpt lat="42.44581" lon="2.0762">
        <ele>1579.4</ele>
        <time>2013-08-08T09:14:32Z</time>
      </trkpt>
      <trkpt lat="42.44579" lon="2.07623">
        <ele>1579.7</ele>
        <time>2013-08-08T09:14:34Z</time>
      </trkpt>
      <trkpt lat="42.44575" lon="2.07626">
        <ele>1579.5</ele>
        <time>2013-08-08T09:14:37Z</time>
      </trkpt>
      <trkpt lat="42.44569" lon="2.07625">
        <ele>1578</ele>
        <time>2013-08-08T09:14:42Z</time>
      </trkpt>
      <trkpt lat="42.44567" lon="2.07621">
        <ele>1578.5</ele>
        <time>2013-08-08T09:15:38Z</time>
      </trkpt>
      <trkpt lat="42.44567" lon="2.07621">
        <ele>1578.5</ele>
        <time>2013-08-08T09:15:39Z</time>
      </trkpt>
      <trkpt lat="42.4456" lon="2.07625">
        <ele>1577.8</ele>
        <time>2013-08-08T09:15:47Z</time>
      </trkpt>
      <trkpt lat="42.44555" lon="2.07629">
        <ele>1577</ele>
        <time>2013-08-08T09:15:54Z</time>
      </trkpt>
      <trkpt lat="42.44553" lon="2.07632">
        <ele>1577.9</ele>
        <time>2013-08-08T09:15:57Z</time>
      </trkpt>
      <trkpt lat="42.44548" lon="2.07636">
        <ele>1577</ele>
        <time>2013-08-08T09:16:02Z</time>
      </trkpt>
      <trkpt lat="42.44546" lon="2.07638">
        <ele>1576.8</ele>
        <time>2013-08-08T09:16:08Z</time>
      </trkpt>
      <trkpt lat="42.44543" lon="2.0764">
        <ele>1576.7</ele>
        <time>2013-08-08T09:16:10Z</time>
      </trkpt>
      <trkpt lat="42.44539" lon="2.07642">
        <ele>1576.7</ele>
        <time>2013-08-08T09:16:13Z</time>
      </trkpt>
      <trkpt lat="42.44536" lon="2.07645">
        <ele>1577.9</ele>
        <time>2013-08-08T09:16:17Z</time>
      </trkpt>
      <trkpt lat="42.44533" lon="2.07647">
        <ele>1577.1</ele>
        <time>2013-08-08T09:16:20Z</time>
      </trkpt>
      <trkpt lat="42.44529" lon="2.07649">
        <ele>1576.8</ele>
        <time>2013-08-08T09:16:24Z</time>
      </trkpt>
      <trkpt lat="42.44526" lon="2.07652">
        <ele>1576.6</ele>
        <time>2013-08-08T09:16:26Z</time>
      </trkpt>
      <trkpt lat="42.44522" lon="2.07653">
        <ele>1576.7</ele>
        <time>2013-08-08T09:16:29Z</time>
      </trkpt>
      <trkpt lat="42.44518" lon="2.07654">
        <ele>1576.5</ele>
        <time>2013-08-08T09:16:33Z</time>
      </trkpt>
      <trkpt lat="42.44515" lon="2.07655">
        <ele>1576.5</ele>
        <time>2013-08-08T09:16:36Z</time>
      </trkpt>
      <trkpt lat="42.44511" lon="2.07657">
        <ele>1577.2</ele>
        <time>2013-08-08T09:16:39Z</time>
      </trkpt>
      <trkpt lat="42.44508" lon="2.07659">
        <ele>1576.6</ele>
        <time>2013-08-08T09:16:41Z</time>
      </trkpt>
      <trkpt lat="42.44507" lon="2.07661">
        <ele>1576.4</ele>
        <time>2013-08-08T09:16:42Z</time>
      </trkpt>
      <trkpt lat="42.44502" lon="2.07664">
        <ele>1575.7</ele>
        <time>2013-08-08T09:16:46Z</time>
      </trkpt>
      <trkpt lat="42.445" lon="2.07666">
        <ele>1575.4</ele>
        <time>2013-08-08T09:16:48Z</time>
      </trkpt>
      <trkpt lat="42.44496" lon="2.0767">
        <ele>1575</ele>
        <time>2013-08-08T09:16:51Z</time>
      </trkpt>
      <trkpt lat="42.44494" lon="2.07674">
        <ele>1574.7</ele>
        <time>2013-08-08T09:16:54Z</time>
      </trkpt>
      <trkpt lat="42.44492" lon="2.07676">
        <ele>1574.6</ele>
        <time>2013-08-08T09:16:56Z</time>
      </trkpt>
      <trkpt lat="42.44488" lon="2.0768">
        <ele>1574</ele>
        <time>2013-08-08T09:16:59Z</time>
      </trkpt>
      <trkpt lat="42.44485" lon="2.07683">
        <ele>1573.4</ele>
        <time>2013-08-08T09:17:02Z</time>
      </trkpt>
      <trkpt lat="42.44484" lon="2.07689">
        <ele>1573.5</ele>
        <time>2013-08-08T09:17:05Z</time>
      </trkpt>
      <trkpt lat="42.44481" lon="2.07693">
        <ele>1572.5</ele>
        <time>2013-08-08T09:17:08Z</time>
      </trkpt>
      <trkpt lat="42.4448" lon="2.07699">
        <ele>1572.7</ele>
        <time>2013-08-08T09:17:12Z</time>
      </trkpt>
      <trkpt lat="42.44479" lon="2.07704">
        <ele>1572.1</ele>
        <time>2013-08-08T09:17:16Z</time>
      </trkpt>
      <trkpt lat="42.44478" lon="2.0771">
        <ele>1571.2</ele>
        <time>2013-08-08T09:17:20Z</time>
      </trkpt>
      <trkpt lat="42.44479" lon="2.07714">
        <ele>1570.9</ele>
        <time>2013-08-08T09:17:22Z</time>
      </trkpt>
      <trkpt lat="42.44479" lon="2.07719">
        <ele>1570.5</ele>
        <time>2013-08-08T09:17:25Z</time>
      </trkpt>
      <trkpt lat="42.44479" lon="2.07725">
        <ele>1569.9</ele>
        <time>2013-08-08T09:17:29Z</time>
      </trkpt>
      <trkpt lat="42.4448" lon="2.0773">
        <ele>1569.6</ele>
        <time>2013-08-08T09:17:33Z</time>
      </trkpt>
      <trkpt lat="42.4448" lon="2.07735">
        <ele>1568.7</ele>
        <time>2013-08-08T09:17:36Z</time>
      </trkpt>
      <trkpt lat="42.44482" lon="2.07739">
        <ele>1568.6</ele>
        <time>2013-08-08T09:17:38Z</time>
      </trkpt>
      <trkpt lat="42.44482" lon="2.07744">
        <ele>1568.3</ele>
        <time>2013-08-08T09:17:41Z</time>
      </trkpt>
      <trkpt lat="42.44483" lon="2.0775">
        <ele>1567.6</ele>
        <time>2013-08-08T09:17:44Z</time>
      </trkpt>
      <trkpt lat="42.44483" lon="2.07752">
        <ele>1567.4</ele>
        <time>2013-08-08T09:17:45Z</time>
      </trkpt>
      <trkpt lat="42.44484" lon="2.07761">
        <ele>1565.9</ele>
        <time>2013-08-08T09:17:54Z</time>
      </trkpt>
      <trkpt lat="42.4448" lon="2.07764">
        <ele>1564.2</ele>
        <time>2013-08-08T09:18:00Z</time>
      </trkpt>
      <trkpt lat="42.44476" lon="2.07765">
        <ele>1563.3</ele>
        <time>2013-08-08T09:18:05Z</time>
      </trkpt>
      <trkpt lat="42.44472" lon="2.07767">
        <ele>1561.9</ele>
        <time>2013-08-08T09:18:11Z</time>
      </trkpt>
      <trkpt lat="42.44468" lon="2.07768">
        <ele>1561.1</ele>
        <time>2013-08-08T09:18:18Z</time>
      </trkpt>
      <trkpt lat="42.44464" lon="2.07769">
        <ele>1560.1</ele>
        <time>2013-08-08T09:18:26Z</time>
      </trkpt>
      <trkpt lat="42.4446" lon="2.0777">
        <ele>1559.2</ele>
        <time>2013-08-08T09:18:32Z</time>
      </trkpt>
      <trkpt lat="42.44456" lon="2.07771">
        <ele>1559</ele>
        <time>2013-08-08T09:18:37Z</time>
      </trkpt>
      <trkpt lat="42.44453" lon="2.07773">
        <ele>1558.6</ele>
        <time>2013-08-08T09:18:40Z</time>
      </trkpt>
      <trkpt lat="42.4445" lon="2.07775">
        <ele>1557.6</ele>
        <time>2013-08-08T09:18:44Z</time>
      </trkpt>
      <trkpt lat="42.44446" lon="2.07775">
        <ele>1557.6</ele>
        <time>2013-08-08T09:18:48Z</time>
      </trkpt>
      <trkpt lat="42.44445" lon="2.07775">
        <ele>1557.3</ele>
        <time>2013-08-08T09:18:49Z</time>
      </trkpt>
      <trkpt lat="42.44438" lon="2.07775">
        <ele>1556.5</ele>
        <time>2013-08-08T09:18:57Z</time>
      </trkpt>
      <trkpt lat="42.44434" lon="2.07775">
        <ele>1555.8</ele>
        <time>2013-08-08T09:19:01Z</time>
      </trkpt>
      <trkpt lat="42.44431" lon="2.07774">
        <ele>1555.5</ele>
        <time>2013-08-08T09:19:04Z</time>
      </trkpt>
      <trkpt lat="42.44426" lon="2.07775">
        <ele>1555.5</ele>
        <time>2013-08-08T09:19:08Z</time>
      </trkpt>
      <trkpt lat="42.44422" lon="2.07777">
        <ele>1554.8</ele>
        <time>2013-08-08T09:19:11Z</time>
      </trkpt>
      <trkpt lat="42.44418" lon="2.07778">
        <ele>1554</ele>
        <time>2013-08-08T09:19:14Z</time>
      </trkpt>
      <trkpt lat="42.44416" lon="2.07781">
        <ele>1553.2</ele>
        <time>2013-08-08T09:19:17Z</time>
      </trkpt>
      <trkpt lat="42.44413" lon="2.07784">
        <ele>1552.9</ele>
        <time>2013-08-08T09:19:19Z</time>
      </trkpt>
      <trkpt lat="42.44411" lon="2.07786">
        <ele>1553.3</ele>
        <time>2013-08-08T09:19:21Z</time>
      </trkpt>
      <trkpt lat="42.44409" lon="2.0779">
        <ele>1553.5</ele>
        <time>2013-08-08T09:19:24Z</time>
      </trkpt>
      <trkpt lat="42.44408" lon="2.07795">
        <ele>1552.7</ele>
        <time>2013-08-08T09:19:27Z</time>
      </trkpt>
      <trkpt lat="42.44408" lon="2.078">
        <ele>1552.1</ele>
        <time>2013-08-08T09:19:30Z</time>
      </trkpt>
      <trkpt lat="42.44407" lon="2.07806">
        <ele>1551.2</ele>
        <time>2013-08-08T09:19:33Z</time>
      </trkpt>
      <trkpt lat="42.44406" lon="2.07811">
        <ele>1550.7</ele>
        <time>2013-08-08T09:19:36Z</time>
      </trkpt>
      <trkpt lat="42.44406" lon="2.07817">
        <ele>1550.7</ele>
        <time>2013-08-08T09:19:39Z</time>
      </trkpt>
      <trkpt lat="42.44404" lon="2.07822">
        <ele>1550.3</ele>
        <time>2013-08-08T09:19:42Z</time>
      </trkpt>
      <trkpt lat="42.44404" lon="2.07826">
        <ele>1550</ele>
        <time>2013-08-08T09:19:44Z</time>
      </trkpt>
      <trkpt lat="42.44402" lon="2.07832">
        <ele>1549.9</ele>
        <time>2013-08-08T09:19:47Z</time>
      </trkpt>
      <trkpt lat="42.44401" lon="2.07837">
        <ele>1549.6</ele>
        <time>2013-08-08T09:19:50Z</time>
      </trkpt>
      <trkpt lat="42.44401" lon="2.07839">
        <ele>1549.5</ele>
        <time>2013-08-08T09:19:51Z</time>
      </trkpt>
      <trkpt lat="42.44399" lon="2.07847">
        <ele>1549.1</ele>
        <time>2013-08-08T09:19:56Z</time>
      </trkpt>
      <trkpt lat="42.44399" lon="2.07852">
        <ele>1548.2</ele>
        <time>2013-08-08T09:20:00Z</time>
      </trkpt>
      <trkpt lat="42.44398" lon="2.07858">
        <ele>1548</ele>
        <time>2013-08-08T09:20:03Z</time>
      </trkpt>
      <trkpt lat="42.44396" lon="2.07863">
        <ele>1548.4</ele>
        <time>2013-08-08T09:20:07Z</time>
      </trkpt>
      <trkpt lat="42.44393" lon="2.07865">
        <ele>1548.5</ele>
        <time>2013-08-08T09:20:10Z</time>
      </trkpt>
      <trkpt lat="42.4439" lon="2.07869">
        <ele>1549</ele>
        <time>2013-08-08T09:20:14Z</time>
      </trkpt>
      <trkpt lat="42.44387" lon="2.07871">
        <ele>1548.2</ele>
        <time>2013-08-08T09:20:18Z</time>
      </trkpt>
      <trkpt lat="42.44383" lon="2.07872">
        <ele>1547.4</ele>
        <time>2013-08-08T09:20:21Z</time>
      </trkpt>
      <trkpt lat="42.4438" lon="2.07873">
        <ele>1547.2</ele>
        <time>2013-08-08T09:20:24Z</time>
      </trkpt>
      <trkpt lat="42.44376" lon="2.07875">
        <ele>1546.5</ele>
        <time>2013-08-08T09:20:28Z</time>
      </trkpt>
      <trkpt lat="42.44371" lon="2.07876">
        <ele>1546.4</ele>
        <time>2013-08-08T09:20:33Z</time>
      </trkpt>
      <trkpt lat="42.44367" lon="2.07878">
        <ele>1545.8</ele>
        <time>2013-08-08T09:20:37Z</time>
      </trkpt>
      <trkpt lat="42.44364" lon="2.0788">
        <ele>1546.1</ele>
        <time>2013-08-08T09:20:40Z</time>
      </trkpt>
      <trkpt lat="42.4436" lon="2.07881">
        <ele>1546</ele>
        <time>2013-08-08T09:20:43Z</time>
      </trkpt>
      <trkpt lat="42.44356" lon="2.07884">
        <ele>1545</ele>
        <time>2013-08-08T09:20:47Z</time>
      </trkpt>
      <trkpt lat="42.44353" lon="2.07888">
        <ele>1544.4</ele>
        <time>2013-08-08T09:20:51Z</time>
      </trkpt>
      <trkpt lat="42.4435" lon="2.07891">
        <ele>1544.7</ele>
        <time>2013-08-08T09:20:55Z</time>
      </trkpt>
      <trkpt lat="42.44349" lon="2.07892">
        <ele>1544.4</ele>
        <time>2013-08-08T09:20:56Z</time>
      </trkpt>
      <trkpt lat="42.44343" lon="2.07893">
        <ele>1543.8</ele>
        <time>2013-08-08T09:21:03Z</time>
      </trkpt>
      <trkpt lat="42.44338" lon="2.07893">
        <ele>1543.4</ele>
        <time>2013-08-08T09:21:07Z</time>
      </trkpt>
      <trkpt lat="42.44335" lon="2.07896">
        <ele>1543.7</ele>
        <time>2013-08-08T09:21:11Z</time>
      </trkpt>
      <trkpt lat="42.4433" lon="2.07899">
        <ele>1543.6</ele>
        <time>2013-08-08T09:21:15Z</time>
      </trkpt>
      <trkpt lat="42.44327" lon="2.07902">
        <ele>1543.7</ele>
        <time>2013-08-08T09:21:18Z</time>
      </trkpt>
      <trkpt lat="42.44323" lon="2.07904">
        <ele>1543.5</ele>
        <time>2013-08-08T09:21:22Z</time>
      </trkpt>
      <trkpt lat="42.4432" lon="2.07907">
        <ele>1542.8</ele>
        <time>2013-08-08T09:21:25Z</time>
      </trkpt>
      <trkpt lat="42.44317" lon="2.07912">
        <ele>1541.6</ele>
        <time>2013-08-08T09:21:30Z</time>
      </trkpt>
      <trkpt lat="42.44314" lon="2.07915">
        <ele>1541</ele>
        <time>2013-08-08T09:21:33Z</time>
      </trkpt>
      <trkpt lat="42.44312" lon="2.07919">
        <ele>1540.1</ele>
        <time>2013-08-08T09:21:37Z</time>
      </trkpt>
      <trkpt lat="42.4431" lon="2.07923">
        <ele>1539.1</ele>
        <time>2013-08-08T09:21:40Z</time>
      </trkpt>
      <trkpt lat="42.44308" lon="2.07928">
        <ele>1538.2</ele>
        <time>2013-08-08T09:21:44Z</time>
      </trkpt>
      <trkpt lat="42.44306" lon="2.07933">
        <ele>1538.2</ele>
        <time>2013-08-08T09:21:48Z</time>
      </trkpt>
      <trkpt lat="42.44303" lon="2.07937">
        <ele>1538.1</ele>
        <time>2013-08-08T09:21:53Z</time>
      </trkpt>
      <trkpt lat="42.44299" lon="2.07939">
        <ele>1537.3</ele>
        <time>2013-08-08T09:21:57Z</time>
      </trkpt>
      <trkpt lat="42.44298" lon="2.07939">
        <ele>1537.1</ele>
        <time>2013-08-08T09:21:58Z</time>
      </trkpt>
      <trkpt lat="42.44291" lon="2.07942">
        <ele>1535</ele>
        <time>2013-08-08T09:22:08Z</time>
      </trkpt>
      <trkpt lat="42.44287" lon="2.07942">
        <ele>1534.6</ele>
        <time>2013-08-08T09:22:13Z</time>
      </trkpt>
      <trkpt lat="42.44284" lon="2.07944">
        <ele>1534.8</ele>
        <time>2013-08-08T09:22:18Z</time>
      </trkpt>
      <trkpt lat="42.4428" lon="2.07946">
        <ele>1534.5</ele>
        <time>2013-08-08T09:22:22Z</time>
      </trkpt>
      <trkpt lat="42.44276" lon="2.07948">
        <ele>1534.5</ele>
        <time>2013-08-08T09:22:26Z</time>
      </trkpt>
      <trkpt lat="42.44272" lon="2.0795">
        <ele>1534.9</ele>
        <time>2013-08-08T09:22:29Z</time>
      </trkpt>
      <trkpt lat="42.44269" lon="2.07952">
        <ele>1534.8</ele>
        <time>2013-08-08T09:22:32Z</time>
      </trkpt>
      <trkpt lat="42.44265" lon="2.07955">
        <ele>1535.6</ele>
        <time>2013-08-08T09:22:36Z</time>
      </trkpt>
      <trkpt lat="42.44261" lon="2.07957">
        <ele>1535.3</ele>
        <time>2013-08-08T09:22:40Z</time>
      </trkpt>
      <trkpt lat="42.44257" lon="2.07959">
        <ele>1535</ele>
        <time>2013-08-08T09:22:44Z</time>
      </trkpt>
      <trkpt lat="42.44254" lon="2.07962">
        <ele>1535.1</ele>
        <time>2013-08-08T09:22:47Z</time>
      </trkpt>
      <trkpt lat="42.4425" lon="2.07961">
        <ele>1535.2</ele>
        <time>2013-08-08T09:22:50Z</time>
      </trkpt>
      <trkpt lat="42.44246" lon="2.07965">
        <ele>1535.1</ele>
        <time>2013-08-08T09:22:54Z</time>
      </trkpt>
      <trkpt lat="42.44243" lon="2.07966">
        <ele>1535</ele>
        <time>2013-08-08T09:22:57Z</time>
      </trkpt>
      <trkpt lat="42.44239" lon="2.07968">
        <ele>1535.1</ele>
        <time>2013-08-08T09:23:00Z</time>
      </trkpt>
      <trkpt lat="42.44238" lon="2.07968">
        <ele>1535.2</ele>
        <time>2013-08-08T09:23:01Z</time>
      </trkpt>
      <trkpt lat="42.44233" lon="2.07971">
        <ele>1535.4</ele>
        <time>2013-08-08T09:23:06Z</time>
      </trkpt>
      <trkpt lat="42.44229" lon="2.07973">
        <ele>1535.6</ele>
        <time>2013-08-08T09:23:09Z</time>
      </trkpt>
      <trkpt lat="42.44227" lon="2.07978">
        <ele>1536.2</ele>
        <time>2013-08-08T09:23:20Z</time>
      </trkpt>
      <trkpt lat="42.44223" lon="2.0798">
        <ele>1536.4</ele>
        <time>2013-08-08T09:23:27Z</time>
      </trkpt>
      <trkpt lat="42.44219" lon="2.07981">
        <ele>1535.8</ele>
        <time>2013-08-08T09:23:31Z</time>
      </trkpt>
      <trkpt lat="42.44215" lon="2.07981">
        <ele>1536.7</ele>
        <time>2013-08-08T09:23:38Z</time>
      </trkpt>
      <trkpt lat="42.44212" lon="2.07982">
        <ele>1535.9</ele>
        <time>2013-08-08T09:23:41Z</time>
      </trkpt>
      <trkpt lat="42.44208" lon="2.07983">
        <ele>1534.9</ele>
        <time>2013-08-08T09:23:45Z</time>
      </trkpt>
      <trkpt lat="42.44204" lon="2.07983">
        <ele>1534.6</ele>
        <time>2013-08-08T09:23:48Z</time>
      </trkpt>
      <trkpt lat="42.442" lon="2.07983">
        <ele>1534.2</ele>
        <time>2013-08-08T09:23:51Z</time>
      </trkpt>
      <trkpt lat="42.44196" lon="2.07983">
        <ele>1534.8</ele>
        <time>2013-08-08T09:23:55Z</time>
      </trkpt>
      <trkpt lat="42.44193" lon="2.07985">
        <ele>1534.9</ele>
        <time>2013-08-08T09:23:58Z</time>
      </trkpt>
      <trkpt lat="42.44189" lon="2.07985">
        <ele>1534.6</ele>
        <time>2013-08-08T09:24:01Z</time>
      </trkpt>
      <trkpt lat="42.44188" lon="2.07985">
        <ele>1534.5</ele>
        <time>2013-08-08T09:24:02Z</time>
      </trkpt>
      <trkpt lat="42.44181" lon="2.07987">
        <ele>1534.6</ele>
        <time>2013-08-08T09:24:07Z</time>
      </trkpt>
      <trkpt lat="42.44178" lon="2.07988">
        <ele>1534.6</ele>
        <time>2013-08-08T09:24:10Z</time>
      </trkpt>
      <trkpt lat="42.44174" lon="2.07989">
        <ele>1534.1</ele>
        <time>2013-08-08T09:24:13Z</time>
      </trkpt>
      <trkpt lat="42.44171" lon="2.07991">
        <ele>1533.6</ele>
        <time>2013-08-08T09:24:16Z</time>
      </trkpt>
      <trkpt lat="42.44168" lon="2.07992">
        <ele>1533.5</ele>
        <time>2013-08-08T09:24:19Z</time>
      </trkpt>
      <trkpt lat="42.44164" lon="2.07995">
        <ele>1532.7</ele>
        <time>2013-08-08T09:24:23Z</time>
      </trkpt>
      <trkpt lat="42.4416" lon="2.07998">
        <ele>1532.7</ele>
        <time>2013-08-08T09:24:27Z</time>
      </trkpt>
      <trkpt lat="42.44157" lon="2.08">
        <ele>1532.7</ele>
        <time>2013-08-08T09:24:30Z</time>
      </trkpt>
      <trkpt lat="42.44153" lon="2.08002">
        <ele>1532.4</ele>
        <time>2013-08-08T09:24:33Z</time>
      </trkpt>
      <trkpt lat="42.44149" lon="2.08003">
        <ele>1532.1</ele>
        <time>2013-08-08T09:24:36Z</time>
      </trkpt>
      <trkpt lat="42.44145" lon="2.08005">
        <ele>1531.1</ele>
        <time>2013-08-08T09:24:40Z</time>
      </trkpt>
      <trkpt lat="42.44138" lon="2.08008">
        <ele>1530</ele>
        <time>2013-08-08T09:24:45Z</time>
      </trkpt>
      <trkpt lat="42.44134" lon="2.0801">
        <ele>1529.5</ele>
        <time>2013-08-08T09:24:50Z</time>
      </trkpt>
      <trkpt lat="42.44132" lon="2.08013">
        <ele>1530.2</ele>
        <time>2013-08-08T09:24:54Z</time>
      </trkpt>
      <trkpt lat="42.44129" lon="2.08016">
        <ele>1529.6</ele>
        <time>2013-08-08T09:24:57Z</time>
      </trkpt>
      <trkpt lat="42.44126" lon="2.08019">
        <ele>1529.1</ele>
        <time>2013-08-08T09:24:59Z</time>
      </trkpt>
      <trkpt lat="42.44124" lon="2.08023">
        <ele>1528.6</ele>
        <time>2013-08-08T09:25:02Z</time>
      </trkpt>
      <trkpt lat="42.44123" lon="2.08024">
        <ele>1528.4</ele>
        <time>2013-08-08T09:25:03Z</time>
      </trkpt>
      <trkpt lat="42.44123" lon="2.08023">
        <ele>1527.8</ele>
        <time>2013-08-08T09:25:23Z</time>
      </trkpt>
      <trkpt lat="42.44125" lon="2.08019">
        <ele>1527.8</ele>
        <time>2013-08-08T09:25:26Z</time>
      </trkpt>
      <trkpt lat="42.44127" lon="2.08015">
        <ele>1527.5</ele>
        <time>2013-08-08T09:25:29Z</time>
      </trkpt>
      <trkpt lat="42.44131" lon="2.08009">
        <ele>1527</ele>
        <time>2013-08-08T09:25:33Z</time>
      </trkpt>
      <trkpt lat="42.44134" lon="2.08002">
        <ele>1526</ele>
        <time>2013-08-08T09:25:37Z</time>
      </trkpt>
      <trkpt lat="42.44137" lon="2.07996">
        <ele>1526</ele>
        <time>2013-08-08T09:25:41Z</time>
      </trkpt>
      <trkpt lat="42.44139" lon="2.07989">
        <ele>1525</ele>
        <time>2013-08-08T09:25:57Z</time>
      </trkpt>
      <trkpt lat="42.44144" lon="2.07984">
        <ele>1524</ele>
        <time>2013-08-08T09:26:01Z</time>
      </trkpt>
      <trkpt lat="42.44147" lon="2.07976">
        <ele>1524</ele>
        <time>2013-08-08T09:26:09Z</time>
      </trkpt>
      <trkpt lat="42.44148" lon="2.07975">
        <ele>1524</ele>
        <time>2013-08-08T09:26:11Z</time>
      </trkpt>
      <trkpt lat="42.44162" lon="2.0796">
        <ele>1522</ele>
        <time>2013-08-08T09:26:25Z</time>
      </trkpt>
      <trkpt lat="42.44166" lon="2.07955">
        <ele>1521</ele>
        <time>2013-08-08T09:26:31Z</time>
      </trkpt>
      <trkpt lat="42.44173" lon="2.07954">
        <ele>1521</ele>
        <time>2013-08-08T09:26:37Z</time>
      </trkpt>
      <trkpt lat="42.4418" lon="2.07954">
        <ele>1521</ele>
        <time>2013-08-08T09:26:42Z</time>
      </trkpt>
      <trkpt lat="42.44191" lon="2.07955">
        <ele>1521</ele>
        <time>2013-08-08T09:26:47Z</time>
      </trkpt>
      <trkpt lat="42.44195" lon="2.07955">
        <ele>1521.1</ele>
        <time>2013-08-08T09:26:51Z</time>
      </trkpt>
      <trkpt lat="42.44199" lon="2.07955">
        <ele>1520.3</ele>
        <time>2013-08-08T09:26:54Z</time>
      </trkpt>
      <trkpt lat="42.44203" lon="2.07954">
        <ele>1520</ele>
        <time>2013-08-08T09:26:58Z</time>
      </trkpt>
      <trkpt lat="42.44209" lon="2.07954">
        <ele>1520</ele>
        <time>2013-08-08T09:27:02Z</time>
      </trkpt>
      <trkpt lat="42.44214" lon="2.07952">
        <ele>1520.1</ele>
        <time>2013-08-08T09:27:06Z</time>
      </trkpt>
      <trkpt lat="42.44216" lon="2.07949">
        <ele>1520.2</ele>
        <time>2013-08-08T09:27:08Z</time>
      </trkpt>
      <trkpt lat="42.4422" lon="2.07941">
        <ele>1519</ele>
        <time>2013-08-08T09:27:13Z</time>
      </trkpt>
      <trkpt lat="42.44221" lon="2.07939">
        <ele>1519</ele>
        <time>2013-08-08T09:27:15Z</time>
      </trkpt>
      <trkpt lat="42.44224" lon="2.07932">
        <ele>1518.9</ele>
        <time>2013-08-08T09:27:19Z</time>
      </trkpt>
      <trkpt lat="42.44226" lon="2.07929">
        <ele>1518.8</ele>
        <time>2013-08-08T09:27:21Z</time>
      </trkpt>
      <trkpt lat="42.44228" lon="2.07925">
        <ele>1518.2</ele>
        <time>2013-08-08T09:27:24Z</time>
      </trkpt>
      <trkpt lat="42.44228" lon="2.07917">
        <ele>1518</ele>
        <time>2013-08-08T09:27:27Z</time>
      </trkpt>
      <trkpt lat="42.44229" lon="2.0791">
        <ele>1517</ele>
        <time>2013-08-08T09:27:31Z</time>
      </trkpt>
      <trkpt lat="42.44235" lon="2.07905">
        <ele>1517</ele>
        <time>2013-08-08T09:27:35Z</time>
      </trkpt>
      <trkpt lat="42.44239" lon="2.07901">
        <ele>1517</ele>
        <time>2013-08-08T09:27:39Z</time>
      </trkpt>
      <trkpt lat="42.44243" lon="2.07897">
        <ele>1517</ele>
        <time>2013-08-08T09:27:43Z</time>
      </trkpt>
      <trkpt lat="42.44247" lon="2.07893">
        <ele>1516</ele>
        <time>2013-08-08T09:27:47Z</time>
      </trkpt>
      <trkpt lat="42.44253" lon="2.07886">
        <ele>1516</ele>
        <time>2013-08-08T09:27:55Z</time>
      </trkpt>
      <trkpt lat="42.44256" lon="2.07881">
        <ele>1515</ele>
        <time>2013-08-08T09:27:59Z</time>
      </trkpt>
      <trkpt lat="42.44261" lon="2.07877">
        <ele>1515</ele>
        <time>2013-08-08T09:28:03Z</time>
      </trkpt>
      <trkpt lat="42.44265" lon="2.07873">
        <ele>1515</ele>
        <time>2013-08-08T09:28:07Z</time>
      </trkpt>
      <trkpt lat="42.44271" lon="2.07864">
        <ele>1514</ele>
        <time>2013-08-08T09:28:15Z</time>
      </trkpt>
      <trkpt lat="42.44273" lon="2.07863">
        <ele>1514.6</ele>
        <time>2013-08-08T09:28:17Z</time>
      </trkpt>
      <trkpt lat="42.44277" lon="2.07855">
        <ele>1514</ele>
        <time>2013-08-08T09:28:23Z</time>
      </trkpt>
      <trkpt lat="42.44282" lon="2.07852">
        <ele>1514</ele>
        <time>2013-08-08T09:28:27Z</time>
      </trkpt>
      <trkpt lat="42.44286" lon="2.07849">
        <ele>1514</ele>
        <time>2013-08-08T09:28:31Z</time>
      </trkpt>
      <trkpt lat="42.4429" lon="2.07845">
        <ele>1513</ele>
        <time>2013-08-08T09:28:36Z</time>
      </trkpt>
      <trkpt lat="42.44295" lon="2.07841">
        <ele>1513</ele>
        <time>2013-08-08T09:28:41Z</time>
      </trkpt>
      <trkpt lat="42.44302" lon="2.07838">
        <ele>1511</ele>
        <time>2013-08-08T09:28:49Z</time>
      </trkpt>
      <trkpt lat="42.44307" lon="2.07836">
        <ele>1511</ele>
        <time>2013-08-08T09:28:53Z</time>
      </trkpt>
      <trkpt lat="42.44312" lon="2.07834">
        <ele>1510</ele>
        <time>2013-08-08T09:28:58Z</time>
      </trkpt>
      <trkpt lat="42.44314" lon="2.07828">
        <ele>1510.4</ele>
        <time>2013-08-08T09:29:04Z</time>
      </trkpt>
      <trkpt lat="42.44318" lon="2.07827">
        <ele>1510.1</ele>
        <time>2013-08-08T09:29:07Z</time>
      </trkpt>
      <trkpt lat="42.44321" lon="2.07826">
        <ele>1509.7</ele>
        <time>2013-08-08T09:29:11Z</time>
      </trkpt>
      <trkpt lat="42.44325" lon="2.07825">
        <ele>1509.9</ele>
        <time>2013-08-08T09:29:14Z</time>
      </trkpt>
      <trkpt lat="42.44329" lon="2.07827">
        <ele>1510</ele>
        <time>2013-08-08T09:29:17Z</time>
      </trkpt>
      <trkpt lat="42.4433" lon="2.07828">
        <ele>1510</ele>
        <time>2013-08-08T09:29:18Z</time>
      </trkpt>
      <trkpt lat="42.44336" lon="2.07826">
        <ele>1509.2</ele>
        <time>2013-08-08T09:29:23Z</time>
      </trkpt>
      <trkpt lat="42.4434" lon="2.07824">
        <ele>1509</ele>
        <time>2013-08-08T09:29:27Z</time>
      </trkpt>
      <trkpt lat="42.44344" lon="2.07821">
        <ele>1508.5</ele>
        <time>2013-08-08T09:29:30Z</time>
      </trkpt>
      <trkpt lat="42.44348" lon="2.0782">
        <ele>1508.7</ele>
        <time>2013-08-08T09:29:32Z</time>
      </trkpt>
      <trkpt lat="42.44351" lon="2.07817">
        <ele>1509.5</ele>
        <time>2013-08-08T09:29:35Z</time>
      </trkpt>
      <trkpt lat="42.44354" lon="2.07813">
        <ele>1509.3</ele>
        <time>2013-08-08T09:29:38Z</time>
      </trkpt>
      <trkpt lat="42.44356" lon="2.0781">
        <ele>1508.7</ele>
        <time>2013-08-08T09:29:41Z</time>
      </trkpt>
      <trkpt lat="42.44358" lon="2.07805">
        <ele>1507.9</ele>
        <time>2013-08-08T09:29:44Z</time>
      </trkpt>
      <trkpt lat="42.4436" lon="2.07799">
        <ele>1507.7</ele>
        <time>2013-08-08T09:29:48Z</time>
      </trkpt>
      <trkpt lat="42.44362" lon="2.07795">
        <ele>1507.1</ele>
        <time>2013-08-08T09:29:50Z</time>
      </trkpt>
      <trkpt lat="42.44364" lon="2.07792">
        <ele>1507</ele>
        <time>2013-08-08T09:29:52Z</time>
      </trkpt>
      <trkpt lat="42.44365" lon="2.07787">
        <ele>1507</ele>
        <time>2013-08-08T09:29:54Z</time>
      </trkpt>
      <trkpt lat="42.44368" lon="2.07784">
        <ele>1506.5</ele>
        <time>2013-08-08T09:29:56Z</time>
      </trkpt>
      <trkpt lat="42.4437" lon="2.0778">
        <ele>1506.2</ele>
        <time>2013-08-08T09:29:58Z</time>
      </trkpt>
      <trkpt lat="42.44371" lon="2.07775">
        <ele>1506.3</ele>
        <time>2013-08-08T09:30:01Z</time>
      </trkpt>
      <trkpt lat="42.44374" lon="2.07765">
        <ele>1505</ele>
        <time>2013-08-08T09:30:05Z</time>
      </trkpt>
      <trkpt lat="42.44373" lon="2.07758">
        <ele>1505</ele>
        <time>2013-08-08T09:30:09Z</time>
      </trkpt>
      <trkpt lat="42.44374" lon="2.07751">
        <ele>1505</ele>
        <time>2013-08-08T09:30:13Z</time>
      </trkpt>
      <trkpt lat="42.44374" lon="2.07744">
        <ele>1505</ele>
        <time>2013-08-08T09:30:17Z</time>
      </trkpt>
      <trkpt lat="42.44375" lon="2.07742">
        <ele>1506.2</ele>
        <time>2013-08-08T09:30:19Z</time>
      </trkpt>
      <trkpt lat="42.44376" lon="2.07727">
        <ele>1503</ele>
        <time>2013-08-08T09:30:29Z</time>
      </trkpt>
      <trkpt lat="42.44377" lon="2.07721">
        <ele>1504</ele>
        <time>2013-08-08T09:30:33Z</time>
      </trkpt>
      <trkpt lat="42.44382" lon="2.07713">
        <ele>1504</ele>
        <time>2013-08-08T09:30:41Z</time>
      </trkpt>
      <trkpt lat="42.44389" lon="2.07705">
        <ele>1502</ele>
        <time>2013-08-08T09:30:49Z</time>
      </trkpt>
      <trkpt lat="42.44392" lon="2.07699">
        <ele>1502</ele>
        <time>2013-08-08T09:30:57Z</time>
      </trkpt>
      <trkpt lat="42.44396" lon="2.07694">
        <ele>1501</ele>
        <time>2013-08-08T09:31:02Z</time>
      </trkpt>
      <trkpt lat="42.44402" lon="2.07688">
        <ele>1500</ele>
        <time>2013-08-08T09:31:07Z</time>
      </trkpt>
      <trkpt lat="42.44407" lon="2.07683">
        <ele>1501</ele>
        <time>2013-08-08T09:31:11Z</time>
      </trkpt>
      <trkpt lat="42.44411" lon="2.07678">
        <ele>1501</ele>
        <time>2013-08-08T09:31:19Z</time>
      </trkpt>
      <trkpt lat="42.44411" lon="2.07678">
        <ele>1501.3</ele>
        <time>2013-08-08T09:31:21Z</time>
      </trkpt>
      <trkpt lat="42.44424" lon="2.07666">
        <ele>1500</ele>
        <time>2013-08-08T09:31:35Z</time>
      </trkpt>
      <trkpt lat="42.44428" lon="2.07661">
        <ele>1500</ele>
        <time>2013-08-08T09:31:39Z</time>
      </trkpt>
      <trkpt lat="42.44432" lon="2.07655">
        <ele>1500</ele>
        <time>2013-08-08T09:31:43Z</time>
      </trkpt>
      <trkpt lat="42.44431" lon="2.07643">
        <ele>1498</ele>
        <time>2013-08-08T09:31:51Z</time>
      </trkpt>
      <trkpt lat="42.44426" lon="2.07638">
        <ele>1499</ele>
        <time>2013-08-08T09:31:55Z</time>
      </trkpt>
      <trkpt lat="42.44421" lon="2.07631">
        <ele>1499</ele>
        <time>2013-08-08T09:31:59Z</time>
      </trkpt>
      <trkpt lat="42.44415" lon="2.07623">
        <ele>1498</ele>
        <time>2013-08-08T09:32:03Z</time>
      </trkpt>
      <trkpt lat="42.44412" lon="2.07615">
        <ele>1498</ele>
        <time>2013-08-08T09:32:07Z</time>
      </trkpt>
      <trkpt lat="42.44414" lon="2.07609">
        <ele>1497</ele>
        <time>2013-08-08T09:32:11Z</time>
      </trkpt>
      <trkpt lat="42.44417" lon="2.07604">
        <ele>1496</ele>
        <time>2013-08-08T09:32:16Z</time>
      </trkpt>
      <trkpt lat="42.44421" lon="2.07599">
        <ele>1496</ele>
        <time>2013-08-08T09:32:20Z</time>
      </trkpt>
      <trkpt lat="42.44423" lon="2.07597">
        <ele>1496.3</ele>
        <time>2013-08-08T09:32:22Z</time>
      </trkpt>
      <trkpt lat="42.44429" lon="2.07588">
        <ele>1496</ele>
        <time>2013-08-08T09:32:28Z</time>
      </trkpt>
      <trkpt lat="42.44434" lon="2.07584">
        <ele>1495</ele>
        <time>2013-08-08T09:32:32Z</time>
      </trkpt>
      <trkpt lat="42.4444" lon="2.07581">
        <ele>1495</ele>
        <time>2013-08-08T09:32:36Z</time>
      </trkpt>
      <trkpt lat="42.44444" lon="2.07577">
        <ele>1495</ele>
        <time>2013-08-08T09:32:40Z</time>
      </trkpt>
      <trkpt lat="42.44448" lon="2.07572">
        <ele>1496</ele>
        <time>2013-08-08T09:32:44Z</time>
      </trkpt>
      <trkpt lat="42.44451" lon="2.07568">
        <ele>1495</ele>
        <time>2013-08-08T09:32:48Z</time>
      </trkpt>
      <trkpt lat="42.44458" lon="2.0756">
        <ele>1495</ele>
        <time>2013-08-08T09:32:56Z</time>
      </trkpt>
      <trkpt lat="42.44466" lon="2.07554">
        <ele>1493</ele>
        <time>2013-08-08T09:33:04Z</time>
      </trkpt>
      <trkpt lat="42.44471" lon="2.07552">
        <ele>1493</ele>
        <time>2013-08-08T09:33:08Z</time>
      </trkpt>
      <trkpt lat="42.44475" lon="2.07549">
        <ele>1494</ele>
        <time>2013-08-08T09:33:12Z</time>
      </trkpt>
      <trkpt lat="42.4448" lon="2.07547">
        <ele>1493</ele>
        <time>2013-08-08T09:33:16Z</time>
      </trkpt>
      <trkpt lat="42.44484" lon="2.07544">
        <ele>1492</ele>
        <time>2013-08-08T09:33:20Z</time>
      </trkpt>
      <trkpt lat="42.4449" lon="2.0754">
        <ele>1491</ele>
        <time>2013-08-08T09:33:24Z</time>
      </trkpt>
      <trkpt lat="42.44494" lon="2.07539">
        <ele>1491.4</ele>
        <time>2013-08-08T09:33:26Z</time>
      </trkpt>
      <trkpt lat="42.44503" lon="2.07535">
        <ele>1490</ele>
        <time>2013-08-08T09:33:32Z</time>
      </trkpt>
      <trkpt lat="42.4451" lon="2.07528">
        <ele>1490</ele>
        <time>2013-08-08T09:33:40Z</time>
      </trkpt>
      <trkpt lat="42.44512" lon="2.07522">
        <ele>1490</ele>
        <time>2013-08-08T09:33:44Z</time>
      </trkpt>
      <trkpt lat="42.44515" lon="2.07516">
        <ele>1489</ele>
        <time>2013-08-08T09:33:48Z</time>
      </trkpt>
      <trkpt lat="42.4452" lon="2.07511">
        <ele>1489</ele>
        <time>2013-08-08T09:33:52Z</time>
      </trkpt>
      <trkpt lat="42.44524" lon="2.07504">
        <ele>1489</ele>
        <time>2013-08-08T09:33:56Z</time>
      </trkpt>
      <trkpt lat="42.44525" lon="2.07497">
        <ele>1489</ele>
        <time>2013-08-08T09:34:00Z</time>
      </trkpt>
      <trkpt lat="42.44528" lon="2.0749">
        <ele>1489</ele>
        <time>2013-08-08T09:34:04Z</time>
      </trkpt>
      <trkpt lat="42.44532" lon="2.07483">
        <ele>1489</ele>
        <time>2013-08-08T09:34:08Z</time>
      </trkpt>
      <trkpt lat="42.44535" lon="2.07478">
        <ele>1488</ele>
        <time>2013-08-08T09:34:12Z</time>
      </trkpt>
      <trkpt lat="42.44538" lon="2.07472">
        <ele>1489</ele>
        <time>2013-08-08T09:34:16Z</time>
      </trkpt>
      <trkpt lat="42.44542" lon="2.07467">
        <ele>1488</ele>
        <time>2013-08-08T09:34:20Z</time>
      </trkpt>
      <trkpt lat="42.44547" lon="2.07465">
        <ele>1487</ele>
        <time>2013-08-08T09:34:24Z</time>
      </trkpt>
      <trkpt lat="42.4455" lon="2.07458">
        <ele>1486</ele>
        <time>2013-08-08T09:34:32Z</time>
      </trkpt>
      <trkpt lat="42.44549" lon="2.07457">
        <ele>1486.1</ele>
        <time>2013-08-08T09:34:34Z</time>
      </trkpt>
      <trkpt lat="42.44552" lon="2.07439">
        <ele>1484</ele>
        <time>2013-08-08T09:34:44Z</time>
      </trkpt>
      <trkpt lat="42.44552" lon="2.07431">
        <ele>1484</ele>
        <time>2013-08-08T09:34:48Z</time>
      </trkpt>
      <trkpt lat="42.44551" lon="2.07424">
        <ele>1484</ele>
        <time>2013-08-08T09:34:52Z</time>
      </trkpt>
      <trkpt lat="42.44551" lon="2.07417">
        <ele>1483</ele>
        <time>2013-08-08T09:34:56Z</time>
      </trkpt>
      <trkpt lat="42.44546" lon="2.07408">
        <ele>1483</ele>
        <time>2013-08-08T09:35:00Z</time>
      </trkpt>
      <trkpt lat="42.44538" lon="2.07398">
        <ele>1483</ele>
        <time>2013-08-08T09:35:04Z</time>
      </trkpt>
      <trkpt lat="42.4453" lon="2.07389">
        <ele>1483</ele>
        <time>2013-08-08T09:35:08Z</time>
      </trkpt>
      <trkpt lat="42.44521" lon="2.0738">
        <ele>1481</ele>
        <time>2013-08-08T09:35:12Z</time>
      </trkpt>
      <trkpt lat="42.44515" lon="2.07371">
        <ele>1481</ele>
        <time>2013-08-08T09:35:16Z</time>
      </trkpt>
      <trkpt lat="42.4451" lon="2.07364">
        <ele>1480</ele>
        <time>2013-08-08T09:35:20Z</time>
      </trkpt>
      <trkpt lat="42.44505" lon="2.07357">
        <ele>1480</ele>
        <time>2013-08-08T09:35:24Z</time>
      </trkpt>
      <trkpt lat="42.445" lon="2.0735">
        <ele>1478</ele>
        <time>2013-08-08T09:35:28Z</time>
      </trkpt>
      <trkpt lat="42.44497" lon="2.07344">
        <ele>1478</ele>
        <time>2013-08-08T09:35:32Z</time>
      </trkpt>
      <trkpt lat="42.44494" lon="2.07338">
        <ele>1478</ele>
        <time>2013-08-08T09:35:36Z</time>
      </trkpt>
      <trkpt lat="42.44494" lon="2.07335">
        <ele>1478.2</ele>
        <time>2013-08-08T09:35:38Z</time>
      </trkpt>
      <trkpt lat="42.445" lon="2.07321">
        <ele>1476</ele>
        <time>2013-08-08T09:35:56Z</time>
      </trkpt>
      <trkpt lat="42.44506" lon="2.07321">
        <ele>1475</ele>
        <time>2013-08-08T09:36:00Z</time>
      </trkpt>
      <trkpt lat="42.44513" lon="2.07317">
        <ele>1475</ele>
        <time>2013-08-08T09:36:08Z</time>
      </trkpt>
      <trkpt lat="42.44514" lon="2.07308">
        <ele>1473</ele>
        <time>2013-08-08T09:36:20Z</time>
      </trkpt>
      <trkpt lat="42.44512" lon="2.073">
        <ele>1473</ele>
        <time>2013-08-08T09:36:24Z</time>
      </trkpt>
      <trkpt lat="42.44509" lon="2.07294">
        <ele>1473</ele>
        <time>2013-08-08T09:36:28Z</time>
      </trkpt>
      <trkpt lat="42.4451" lon="2.07282">
        <ele>1472</ele>
        <time>2013-08-08T09:36:36Z</time>
      </trkpt>
      <trkpt lat="42.44514" lon="2.07275">
        <ele>1472</ele>
        <time>2013-08-08T09:36:40Z</time>
      </trkpt>
      <trkpt lat="42.44515" lon="2.07272">
        <ele>1472.2</ele>
        <time>2013-08-08T09:36:42Z</time>
      </trkpt>
      <trkpt lat="42.44519" lon="2.07259">
        <ele>1471</ele>
        <time>2013-08-08T09:36:48Z</time>
      </trkpt>
      <trkpt lat="42.44521" lon="2.07252">
        <ele>1471</ele>
        <time>2013-08-08T09:36:52Z</time>
      </trkpt>
      <trkpt lat="42.44524" lon="2.07246">
        <ele>1471</ele>
        <time>2013-08-08T09:36:56Z</time>
      </trkpt>
      <trkpt lat="42.44526" lon="2.07238">
        <ele>1471</ele>
        <time>2013-08-08T09:37:00Z</time>
      </trkpt>
      <trkpt lat="42.44527" lon="2.07232">
        <ele>1470</ele>
        <time>2013-08-08T09:37:04Z</time>
      </trkpt>
      <trkpt lat="42.44531" lon="2.07226">
        <ele>1470</ele>
        <time>2013-08-08T09:37:08Z</time>
      </trkpt>
      <trkpt lat="42.44534" lon="2.0722">
        <ele>1470</ele>
        <time>2013-08-08T09:37:12Z</time>
      </trkpt>
      <trkpt lat="42.44538" lon="2.07215">
        <ele>1470</ele>
        <time>2013-08-08T09:37:16Z</time>
      </trkpt>
      <trkpt lat="42.44543" lon="2.0721">
        <ele>1470</ele>
        <time>2013-08-08T09:37:20Z</time>
      </trkpt>
      <trkpt lat="42.44547" lon="2.07206">
        <ele>1469</ele>
        <time>2013-08-08T09:37:24Z</time>
      </trkpt>
      <trkpt lat="42.44552" lon="2.07203">
        <ele>1469</ele>
        <time>2013-08-08T09:37:28Z</time>
      </trkpt>
      <trkpt lat="42.44556" lon="2.07197">
        <ele>1469</ele>
        <time>2013-08-08T09:37:32Z</time>
      </trkpt>
      <trkpt lat="42.4456" lon="2.07193">
        <ele>1468</ele>
        <time>2013-08-08T09:37:36Z</time>
      </trkpt>
      <trkpt lat="42.44567" lon="2.07183">
        <ele>1468</ele>
        <time>2013-08-08T09:37:44Z</time>
      </trkpt>
      <trkpt lat="42.44569" lon="2.07182">
        <ele>1468.2</ele>
        <time>2013-08-08T09:37:46Z</time>
      </trkpt>
      <trkpt lat="42.44579" lon="2.07169">
        <ele>1466</ele>
        <time>2013-08-08T09:38:00Z</time>
      </trkpt>
      <trkpt lat="42.44583" lon="2.07166">
        <ele>1466</ele>
        <time>2013-08-08T09:38:04Z</time>
      </trkpt>
      <trkpt lat="42.44588" lon="2.07163">
        <ele>1465</ele>
        <time>2013-08-08T09:38:08Z</time>
      </trkpt>
      <trkpt lat="42.44595" lon="2.07158">
        <ele>1466</ele>
        <time>2013-08-08T09:38:16Z</time>
      </trkpt>
      <trkpt lat="42.446" lon="2.07151">
        <ele>1465</ele>
        <time>2013-08-08T09:38:24Z</time>
      </trkpt>
      <trkpt lat="42.44605" lon="2.07144">
        <ele>1464</ele>
        <time>2013-08-08T09:38:32Z</time>
      </trkpt>
      <trkpt lat="42.44608" lon="2.07137">
        <ele>1463</ele>
        <time>2013-08-08T09:38:40Z</time>
      </trkpt>
      <trkpt lat="42.44614" lon="2.07137">
        <ele>1462</ele>
        <time>2013-08-08T09:38:56Z</time>
      </trkpt>
      <trkpt lat="42.44615" lon="2.07137">
        <ele>1462.7</ele>
        <time>2013-08-08T09:38:58Z</time>
      </trkpt>
      <trkpt lat="42.44624" lon="2.07148">
        <ele>1461</ele>
        <time>2013-08-08T09:39:20Z</time>
      </trkpt>
      <trkpt lat="42.44629" lon="2.07153">
        <ele>1461</ele>
        <time>2013-08-08T09:39:24Z</time>
      </trkpt>
      <trkpt lat="42.44634" lon="2.07157">
        <ele>1461</ele>
        <time>2013-08-08T09:39:28Z</time>
      </trkpt>
      <trkpt lat="42.4464" lon="2.0716">
        <ele>1461</ele>
        <time>2013-08-08T09:39:32Z</time>
      </trkpt>
      <trkpt lat="42.44646" lon="2.07166">
        <ele>1461</ele>
        <time>2013-08-08T09:39:36Z</time>
      </trkpt>
      <trkpt lat="42.44652" lon="2.07171">
        <ele>1461</ele>
        <time>2013-08-08T09:39:40Z</time>
      </trkpt>
      <trkpt lat="42.44656" lon="2.07175">
        <ele>1460</ele>
        <time>2013-08-08T09:39:44Z</time>
      </trkpt>
      <trkpt lat="42.4466" lon="2.0718">
        <ele>1460</ele>
        <time>2013-08-08T09:39:48Z</time>
      </trkpt>
      <trkpt lat="42.44664" lon="2.07184">
        <ele>1460</ele>
        <time>2013-08-08T09:39:52Z</time>
      </trkpt>
      <trkpt lat="42.44672" lon="2.0719">
        <ele>1460</ele>
        <time>2013-08-08T09:40:04Z</time>
      </trkpt>
      <trkpt lat="42.44674" lon="2.07192">
        <ele>1460.1</ele>
        <time>2013-08-08T09:40:06Z</time>
      </trkpt>
      <trkpt lat="42.44682" lon="2.07201">
        <ele>1458</ele>
        <time>2013-08-08T09:40:16Z</time>
      </trkpt>
      <trkpt lat="42.44686" lon="2.07206">
        <ele>1457</ele>
        <time>2013-08-08T09:40:24Z</time>
      </trkpt>
      <trkpt lat="42.44693" lon="2.07212">
        <ele>1457</ele>
        <time>2013-08-08T09:40:32Z</time>
      </trkpt>
      <trkpt lat="42.44697" lon="2.07214">
        <ele>1456</ele>
        <time>2013-08-08T09:40:36Z</time>
      </trkpt>
      <trkpt lat="42.44704" lon="2.07219">
        <ele>1455</ele>
        <time>2013-08-08T09:40:44Z</time>
      </trkpt>
      <trkpt lat="42.44709" lon="2.0722">
        <ele>1455</ele>
        <time>2013-08-08T09:40:48Z</time>
      </trkpt>
      <trkpt lat="42.44715" lon="2.07222">
        <ele>1455</ele>
        <time>2013-08-08T09:40:52Z</time>
      </trkpt>
      <trkpt lat="42.44722" lon="2.07221">
        <ele>1453</ele>
        <time>2013-08-08T09:41:00Z</time>
      </trkpt>
      <trkpt lat="42.44727" lon="2.07222">
        <ele>1453</ele>
        <time>2013-08-08T09:41:04Z</time>
      </trkpt>
      <trkpt lat="42.44733" lon="2.07221">
        <ele>1453</ele>
        <time>2013-08-08T09:41:08Z</time>
      </trkpt>
      <trkpt lat="42.44735" lon="2.07221">
        <ele>1453.1</ele>
        <time>2013-08-08T09:41:10Z</time>
      </trkpt>
      <trkpt lat="42.44745" lon="2.07222">
        <ele>1452</ele>
        <time>2013-08-08T09:41:16Z</time>
      </trkpt>
      <trkpt lat="42.44749" lon="2.07225">
        <ele>1452</ele>
        <time>2013-08-08T09:41:20Z</time>
      </trkpt>
      <trkpt lat="42.44757" lon="2.0723">
        <ele>1452</ele>
        <time>2013-08-08T09:41:28Z</time>
      </trkpt>
      <trkpt lat="42.44762" lon="2.07234">
        <ele>1451</ele>
        <time>2013-08-08T09:41:32Z</time>
      </trkpt>
      <trkpt lat="42.44769" lon="2.07239">
        <ele>1451</ele>
        <time>2013-08-08T09:41:40Z</time>
      </trkpt>
      <trkpt lat="42.44778" lon="2.07239">
        <ele>1450</ele>
        <time>2013-08-08T09:41:48Z</time>
      </trkpt>
      <trkpt lat="42.44782" lon="2.07236">
        <ele>1450</ele>
        <time>2013-08-08T09:41:52Z</time>
      </trkpt>
      <trkpt lat="42.44784" lon="2.07223">
        <ele>1450</ele>
        <time>2013-08-08T09:42:00Z</time>
      </trkpt>
      <trkpt lat="42.44781" lon="2.07214">
        <ele>1450</ele>
        <time>2013-08-08T09:42:04Z</time>
      </trkpt>
      <trkpt lat="42.44776" lon="2.07206">
        <ele>1449</ele>
        <time>2013-08-08T09:42:08Z</time>
      </trkpt>
      <trkpt lat="42.44768" lon="2.07198">
        <ele>1449</ele>
        <time>2013-08-08T09:42:12Z</time>
      </trkpt>
      <trkpt lat="42.44765" lon="2.07197">
        <ele>1449.6</ele>
        <time>2013-08-08T09:42:14Z</time>
      </trkpt>
      <trkpt lat="42.44757" lon="2.0719">
        <ele>1448</ele>
        <time>2013-08-08T09:42:20Z</time>
      </trkpt>
      <trkpt lat="42.44753" lon="2.07184">
        <ele>1447</ele>
        <time>2013-08-08T09:42:24Z</time>
      </trkpt>
      <trkpt lat="42.44749" lon="2.07177">
        <ele>1447</ele>
        <time>2013-08-08T09:42:28Z</time>
      </trkpt>
      <trkpt lat="42.44746" lon="2.07171">
        <ele>1445</ele>
        <time>2013-08-08T09:42:32Z</time>
      </trkpt>
      <trkpt lat="42.44743" lon="2.07164">
        <ele>1445</ele>
        <time>2013-08-08T09:42:36Z</time>
      </trkpt>
      <trkpt lat="42.44746" lon="2.07153">
        <ele>1444</ele>
        <time>2013-08-08T09:42:44Z</time>
      </trkpt>
      <trkpt lat="42.4475" lon="2.07148">
        <ele>1443</ele>
        <time>2013-08-08T09:42:48Z</time>
      </trkpt>
      <trkpt lat="42.44755" lon="2.07144">
        <ele>1443</ele>
        <time>2013-08-08T09:42:52Z</time>
      </trkpt>
      <trkpt lat="42.44762" lon="2.07142">
        <ele>1442</ele>
        <time>2013-08-08T09:42:56Z</time>
      </trkpt>
      <trkpt lat="42.44769" lon="2.0714">
        <ele>1441</ele>
        <time>2013-08-08T09:43:00Z</time>
      </trkpt>
      <trkpt lat="42.44775" lon="2.07138">
        <ele>1440</ele>
        <time>2013-08-08T09:43:04Z</time>
      </trkpt>
      <trkpt lat="42.4478" lon="2.07133">
        <ele>1439</ele>
        <time>2013-08-08T09:43:08Z</time>
      </trkpt>
      <trkpt lat="42.44786" lon="2.0713">
        <ele>1440</ele>
        <time>2013-08-08T09:43:12Z</time>
      </trkpt>
      <trkpt lat="42.44791" lon="2.07128">
        <ele>1440</ele>
        <time>2013-08-08T09:43:16Z</time>
      </trkpt>
      <trkpt lat="42.44793" lon="2.07128">
        <ele>1440.4</ele>
        <time>2013-08-08T09:43:18Z</time>
      </trkpt>
      <trkpt lat="42.44802" lon="2.07126">
        <ele>1439</ele>
        <time>2013-08-08T09:43:24Z</time>
      </trkpt>
      <trkpt lat="42.4481" lon="2.07122">
        <ele>1439</ele>
        <time>2013-08-08T09:43:32Z</time>
      </trkpt>
      <trkpt lat="42.44814" lon="2.07119">
        <ele>1439</ele>
        <time>2013-08-08T09:43:36Z</time>
      </trkpt>
      <trkpt lat="42.4482" lon="2.07116">
        <ele>1439</ele>
        <time>2013-08-08T09:43:40Z</time>
      </trkpt>
      <trkpt lat="42.44825" lon="2.0711">
        <ele>1439</ele>
        <time>2013-08-08T09:43:44Z</time>
      </trkpt>
      <trkpt lat="42.44829" lon="2.07104">
        <ele>1439</ele>
        <time>2013-08-08T09:43:48Z</time>
      </trkpt>
      <trkpt lat="42.44832" lon="2.07099">
        <ele>1438</ele>
        <time>2013-08-08T09:43:52Z</time>
      </trkpt>
      <trkpt lat="42.44834" lon="2.07093">
        <ele>1439</ele>
        <time>2013-08-08T09:43:56Z</time>
      </trkpt>
      <trkpt lat="42.44836" lon="2.07086">
        <ele>1439</ele>
        <time>2013-08-08T09:44:00Z</time>
      </trkpt>
      <trkpt lat="42.44838" lon="2.0708">
        <ele>1438</ele>
        <time>2013-08-08T09:44:04Z</time>
      </trkpt>
      <trkpt lat="42.44837" lon="2.07073">
        <ele>1438</ele>
        <time>2013-08-08T09:44:08Z</time>
      </trkpt>
      <trkpt lat="42.44838" lon="2.07067">
        <ele>1437</ele>
        <time>2013-08-08T09:44:12Z</time>
      </trkpt>
      <trkpt lat="42.44837" lon="2.07055">
        <ele>1436</ele>
        <time>2013-08-08T09:44:20Z</time>
      </trkpt>
      <trkpt lat="42.44837" lon="2.07053">
        <ele>1436.2</ele>
        <time>2013-08-08T09:44:22Z</time>
      </trkpt>
      <trkpt lat="42.44838" lon="2.07043">
        <ele>1435</ele>
        <time>2013-08-08T09:44:28Z</time>
      </trkpt>
      <trkpt lat="42.44839" lon="2.07036">
        <ele>1435</ele>
        <time>2013-08-08T09:44:32Z</time>
      </trkpt>
      <trkpt lat="42.4484" lon="2.0703">
        <ele>1434</ele>
        <time>2013-08-08T09:44:36Z</time>
      </trkpt>
      <trkpt lat="42.44841" lon="2.07023">
        <ele>1434</ele>
        <time>2013-08-08T09:44:40Z</time>
      </trkpt>
      <trkpt lat="42.44847" lon="2.07014">
        <ele>1433</ele>
        <time>2013-08-08T09:44:48Z</time>
      </trkpt>
      <trkpt lat="42.44851" lon="2.07009">
        <ele>1433</ele>
        <time>2013-08-08T09:44:52Z</time>
      </trkpt>
      <trkpt lat="42.44853" lon="2.07004">
        <ele>1433</ele>
        <time>2013-08-08T09:44:56Z</time>
      </trkpt>
      <trkpt lat="42.44857" lon="2.07">
        <ele>1432</ele>
        <time>2013-08-08T09:45:00Z</time>
      </trkpt>
      <trkpt lat="42.44863" lon="2.06998">
        <ele>1431</ele>
        <time>2013-08-08T09:45:04Z</time>
      </trkpt>
      <trkpt lat="42.44867" lon="2.06995">
        <ele>1431</ele>
        <time>2013-08-08T09:45:08Z</time>
      </trkpt>
      <trkpt lat="42.44864" lon="2.06976">
        <ele>1430</ele>
        <time>2013-08-08T09:45:16Z</time>
      </trkpt>
      <trkpt lat="42.44879" lon="2.06959">
        <ele>1430.1</ele>
        <time>2013-08-08T09:45:23Z</time>
      </trkpt>
      <trkpt lat="42.44883" lon="2.06947">
        <ele>1428</ele>
        <time>2013-08-08T09:45:35Z</time>
      </trkpt>
      <trkpt lat="42.44886" lon="2.06938">
        <ele>1428</ele>
        <time>2013-08-08T09:45:41Z</time>
      </trkpt>
      <trkpt lat="42.44886" lon="2.06931">
        <ele>1427</ele>
        <time>2013-08-08T09:45:45Z</time>
      </trkpt>
      <trkpt lat="42.44887" lon="2.06923">
        <ele>1428</ele>
        <time>2013-08-08T09:45:49Z</time>
      </trkpt>
      <trkpt lat="42.44886" lon="2.06916">
        <ele>1426</ele>
        <time>2013-08-08T09:45:53Z</time>
      </trkpt>
      <trkpt lat="42.44885" lon="2.06908">
        <ele>1426</ele>
        <time>2013-08-08T09:45:57Z</time>
      </trkpt>
      <trkpt lat="42.44883" lon="2.06901">
        <ele>1426</ele>
        <time>2013-08-08T09:46:01Z</time>
      </trkpt>
      <trkpt lat="42.44881" lon="2.06895">
        <ele>1425</ele>
        <time>2013-08-08T09:46:05Z</time>
      </trkpt>
      <trkpt lat="42.44877" lon="2.06888">
        <ele>1425</ele>
        <time>2013-08-08T09:46:09Z</time>
      </trkpt>
      <trkpt lat="42.44875" lon="2.06881">
        <ele>1425</ele>
        <time>2013-08-08T09:46:13Z</time>
      </trkpt>
      <trkpt lat="42.44874" lon="2.06873">
        <ele>1425</ele>
        <time>2013-08-08T09:46:17Z</time>
      </trkpt>
      <trkpt lat="42.44874" lon="2.06866">
        <ele>1424</ele>
        <time>2013-08-08T09:46:21Z</time>
      </trkpt>
      <trkpt lat="42.44874" lon="2.06859">
        <ele>1423</ele>
        <time>2013-08-08T09:46:25Z</time>
      </trkpt>
      <trkpt lat="42.44875" lon="2.06857">
        <ele>1423.8</ele>
        <time>2013-08-08T09:46:27Z</time>
      </trkpt>
      <trkpt lat="42.44879" lon="2.06844">
        <ele>1421</ele>
        <time>2013-08-08T09:46:37Z</time>
      </trkpt>
      <trkpt lat="42.44883" lon="2.06833">
        <ele>1421</ele>
        <time>2013-08-08T09:46:45Z</time>
      </trkpt>
      <trkpt lat="42.44886" lon="2.06822">
        <ele>1420</ele>
        <time>2013-08-08T09:46:53Z</time>
      </trkpt>
      <trkpt lat="42.44888" lon="2.06809">
        <ele>1420</ele>
        <time>2013-08-08T09:47:01Z</time>
      </trkpt>
      <trkpt lat="42.44887" lon="2.06802">
        <ele>1419</ele>
        <time>2013-08-08T09:47:05Z</time>
      </trkpt>
      <trkpt lat="42.44889" lon="2.06794">
        <ele>1419</ele>
        <time>2013-08-08T09:47:09Z</time>
      </trkpt>
      <trkpt lat="42.4489" lon="2.06788">
        <ele>1419</ele>
        <time>2013-08-08T09:47:13Z</time>
      </trkpt>
      <trkpt lat="42.4489" lon="2.06781">
        <ele>1418</ele>
        <time>2013-08-08T09:47:17Z</time>
      </trkpt>
      <trkpt lat="42.4489" lon="2.06774">
        <ele>1418</ele>
        <time>2013-08-08T09:47:21Z</time>
      </trkpt>
      <trkpt lat="42.44892" lon="2.06767">
        <ele>1417</ele>
        <time>2013-08-08T09:47:25Z</time>
      </trkpt>
      <trkpt lat="42.44893" lon="2.0676">
        <ele>1417</ele>
        <time>2013-08-08T09:47:29Z</time>
      </trkpt>
      <trkpt lat="42.44894" lon="2.06757">
        <ele>1417.2</ele>
        <time>2013-08-08T09:47:31Z</time>
      </trkpt>
      <trkpt lat="42.44898" lon="2.06747">
        <ele>1416</ele>
        <time>2013-08-08T09:47:37Z</time>
      </trkpt>
      <trkpt lat="42.44902" lon="2.06744">
        <ele>1416</ele>
        <time>2013-08-08T09:47:41Z</time>
      </trkpt>
      <trkpt lat="42.44907" lon="2.06741">
        <ele>1416</ele>
        <time>2013-08-08T09:47:45Z</time>
      </trkpt>
      <trkpt lat="42.44913" lon="2.06731">
        <ele>1415</ele>
        <time>2013-08-08T09:47:54Z</time>
      </trkpt>
      <trkpt lat="42.44917" lon="2.06722">
        <ele>1414</ele>
        <time>2013-08-08T09:48:00Z</time>
      </trkpt>
      <trkpt lat="42.4492" lon="2.06716">
        <ele>1413</ele>
        <time>2013-08-08T09:48:04Z</time>
      </trkpt>
      <trkpt lat="42.44921" lon="2.06708">
        <ele>1413</ele>
        <time>2013-08-08T09:48:08Z</time>
      </trkpt>
      <trkpt lat="42.44921" lon="2.06701">
        <ele>1412</ele>
        <time>2013-08-08T09:48:12Z</time>
      </trkpt>
      <trkpt lat="42.44922" lon="2.06694">
        <ele>1411</ele>
        <time>2013-08-08T09:48:16Z</time>
      </trkpt>
      <trkpt lat="42.44923" lon="2.06688">
        <ele>1412</ele>
        <time>2013-08-08T09:48:20Z</time>
      </trkpt>
      <trkpt lat="42.44924" lon="2.06682">
        <ele>1412</ele>
        <time>2013-08-08T09:48:24Z</time>
      </trkpt>
      <trkpt lat="42.44925" lon="2.06676">
        <ele>1412</ele>
        <time>2013-08-08T09:48:28Z</time>
      </trkpt>
      <trkpt lat="42.44927" lon="2.06669">
        <ele>1412</ele>
        <time>2013-08-08T09:48:32Z</time>
      </trkpt>
      <trkpt lat="42.44928" lon="2.06666">
        <ele>1412.4</ele>
        <time>2013-08-08T09:48:34Z</time>
      </trkpt>
      <trkpt lat="42.44929" lon="2.06653">
        <ele>1412</ele>
        <time>2013-08-08T09:48:41Z</time>
      </trkpt>
      <trkpt lat="42.44929" lon="2.06643">
        <ele>1412</ele>
        <time>2013-08-08T09:48:46Z</time>
      </trkpt>
      <trkpt lat="42.4493" lon="2.06631">
        <ele>1410</ele>
        <time>2013-08-08T09:48:54Z</time>
      </trkpt>
      <trkpt lat="42.44932" lon="2.0662">
        <ele>1409</ele>
        <time>2013-08-08T09:49:02Z</time>
      </trkpt>
      <trkpt lat="42.44938" lon="2.06611">
        <ele>1408</ele>
        <time>2013-08-08T09:49:10Z</time>
      </trkpt>
      <trkpt lat="42.44939" lon="2.06601">
        <ele>1408</ele>
        <time>2013-08-08T09:49:18Z</time>
      </trkpt>
      <trkpt lat="42.44943" lon="2.06595">
        <ele>1406</ele>
        <time>2013-08-08T09:49:22Z</time>
      </trkpt>
      <trkpt lat="42.44947" lon="2.06589">
        <ele>1406</ele>
        <time>2013-08-08T09:49:26Z</time>
      </trkpt>
      <trkpt lat="42.4495" lon="2.06584">
        <ele>1406</ele>
        <time>2013-08-08T09:49:30Z</time>
      </trkpt>
      <trkpt lat="42.44952" lon="2.06578">
        <ele>1405</ele>
        <time>2013-08-08T09:49:34Z</time>
      </trkpt>
      <trkpt lat="42.44953" lon="2.06575">
        <ele>1405.2</ele>
        <time>2013-08-08T09:49:36Z</time>
      </trkpt>
      <trkpt lat="42.44956" lon="2.06564">
        <ele>1404</ele>
        <time>2013-08-08T09:49:42Z</time>
      </trkpt>
      <trkpt lat="42.44959" lon="2.06558">
        <ele>1403</ele>
        <time>2013-08-08T09:49:46Z</time>
      </trkpt>
      <trkpt lat="42.44962" lon="2.06552">
        <ele>1403</ele>
        <time>2013-08-08T09:49:50Z</time>
      </trkpt>
      <trkpt lat="42.44961" lon="2.06543">
        <ele>1403</ele>
        <time>2013-08-08T09:49:54Z</time>
      </trkpt>
      <trkpt lat="42.44961" lon="2.06536">
        <ele>1402</ele>
        <time>2013-08-08T09:49:58Z</time>
      </trkpt>
      <trkpt lat="42.44961" lon="2.06529">
        <ele>1402</ele>
        <time>2013-08-08T09:50:02Z</time>
      </trkpt>
      <trkpt lat="42.44962" lon="2.06522">
        <ele>1401</ele>
        <time>2013-08-08T09:50:06Z</time>
      </trkpt>
      <trkpt lat="42.44963" lon="2.06516">
        <ele>1400</ele>
        <time>2013-08-08T09:50:10Z</time>
      </trkpt>
      <trkpt lat="42.44966" lon="2.0651">
        <ele>1400</ele>
        <time>2013-08-08T09:50:14Z</time>
      </trkpt>
      <trkpt lat="42.44968" lon="2.06504">
        <ele>1400</ele>
        <time>2013-08-08T09:50:18Z</time>
      </trkpt>
      <trkpt lat="42.4497" lon="2.06494">
        <ele>1399</ele>
        <time>2013-08-08T09:50:38Z</time>
      </trkpt>
      <trkpt lat="42.44971" lon="2.06493">
        <ele>1399.5</ele>
        <time>2013-08-08T09:50:40Z</time>
      </trkpt>
      <trkpt lat="42.44975" lon="2.06483">
        <ele>1399</ele>
        <time>2013-08-08T09:50:50Z</time>
      </trkpt>
      <trkpt lat="42.44977" lon="2.06475">
        <ele>1399</ele>
        <time>2013-08-08T09:51:06Z</time>
      </trkpt>
      <trkpt lat="42.44983" lon="2.06467">
        <ele>1398</ele>
        <time>2013-08-08T09:51:14Z</time>
      </trkpt>
      <trkpt lat="42.44989" lon="2.0646">
        <ele>1397</ele>
        <time>2013-08-08T09:51:22Z</time>
      </trkpt>
      <trkpt lat="42.44994" lon="2.06452">
        <ele>1397</ele>
        <time>2013-08-08T09:51:30Z</time>
      </trkpt>
      <trkpt lat="42.45" lon="2.06445">
        <ele>1396</ele>
        <time>2013-08-08T09:51:38Z</time>
      </trkpt>
      <trkpt lat="42.45004" lon="2.0644">
        <ele>1396</ele>
        <time>2013-08-08T09:51:46Z</time>
      </trkpt>
      <trkpt lat="42.45004" lon="2.0644">
        <ele>1396.2</ele>
        <time>2013-08-08T09:51:48Z</time>
      </trkpt>
      <trkpt lat="42.45015" lon="2.06429">
        <ele>1395</ele>
        <time>2013-08-08T09:52:14Z</time>
      </trkpt>
      <trkpt lat="42.45014" lon="2.06423">
        <ele>1393</ele>
        <time>2013-08-08T09:52:46Z</time>
      </trkpt>
      <trkpt lat="42.45015" lon="2.06421">
        <ele>1393.7</ele>
        <time>2013-08-08T09:52:49Z</time>
      </trkpt>
      <trkpt lat="42.45009" lon="2.06414">
        <ele>1393</ele>
        <time>2013-08-08T09:53:07Z</time>
      </trkpt>
      <trkpt lat="42.45004" lon="2.06412">
        <ele>1392</ele>
        <time>2013-08-08T09:53:15Z</time>
      </trkpt>
      <trkpt lat="42.45011" lon="2.06413">
        <ele>1392</ele>
        <time>2013-08-08T09:53:23Z</time>
      </trkpt>
      <trkpt lat="42.45015" lon="2.06411">
        <ele>1392</ele>
        <time>2013-08-08T09:53:43Z</time>
      </trkpt>
      <trkpt lat="42.45022" lon="2.06411">
        <ele>1392</ele>
        <time>2013-08-08T09:53:47Z</time>
      </trkpt>
      <trkpt lat="42.45029" lon="2.0641">
        <ele>1392</ele>
        <time>2013-08-08T09:53:51Z</time>
      </trkpt>
      <trkpt lat="42.45031" lon="2.0641">
        <ele>1392.7</ele>
        <time>2013-08-08T09:53:53Z</time>
      </trkpt>
      <trkpt lat="42.45041" lon="2.06407">
        <ele>1391</ele>
        <time>2013-08-08T09:54:01Z</time>
      </trkpt>
      <trkpt lat="42.45049" lon="2.06404">
        <ele>1391</ele>
        <time>2013-08-08T09:54:07Z</time>
      </trkpt>
      <trkpt lat="42.45054" lon="2.06402">
        <ele>1390</ele>
        <time>2013-08-08T09:54:11Z</time>
      </trkpt>
      <trkpt lat="42.45062" lon="2.06401">
        <ele>1390</ele>
        <time>2013-08-08T09:54:19Z</time>
      </trkpt>
      <trkpt lat="42.4507" lon="2.06393">
        <ele>1388</ele>
        <time>2013-08-08T09:54:30Z</time>
      </trkpt>
      <trkpt lat="42.45076" lon="2.06385">
        <ele>1388</ele>
        <time>2013-08-08T09:54:38Z</time>
      </trkpt>
      <trkpt lat="42.45079" lon="2.06376">
        <ele>1387</ele>
        <time>2013-08-08T09:54:47Z</time>
      </trkpt>
      <trkpt lat="42.4508" lon="2.06368">
        <ele>1387</ele>
        <time>2013-08-08T09:54:55Z</time>
      </trkpt>
      <trkpt lat="42.4508" lon="2.06366">
        <ele>1387</ele>
        <time>2013-08-08T09:54:57Z</time>
      </trkpt>
      <trkpt lat="42.45076" lon="2.06351">
        <ele>1386</ele>
        <time>2013-08-08T09:55:07Z</time>
      </trkpt>
      <trkpt lat="42.45076" lon="2.06344">
        <ele>1385</ele>
        <time>2013-08-08T09:55:15Z</time>
      </trkpt>
      <trkpt lat="42.45078" lon="2.06337">
        <ele>1383</ele>
        <time>2013-08-08T09:55:27Z</time>
      </trkpt>
      <trkpt lat="42.4508" lon="2.0633">
        <ele>1382</ele>
        <time>2013-08-08T09:55:43Z</time>
      </trkpt>
      <trkpt lat="42.45077" lon="2.06324">
        <ele>1382</ele>
        <time>2013-08-08T09:55:51Z</time>
      </trkpt>
      <trkpt lat="42.45075" lon="2.06317">
        <ele>1381</ele>
        <time>2013-08-08T09:56:03Z</time>
      </trkpt>
      <trkpt lat="42.45075" lon="2.06315">
        <ele>1381.2</ele>
        <time>2013-08-08T09:56:05Z</time>
      </trkpt>
      <trkpt lat="42.4507" lon="2.06294">
        <ele>1379</ele>
        <time>2013-08-08T09:56:19Z</time>
      </trkpt>
      <trkpt lat="42.45067" lon="2.06288">
        <ele>1378</ele>
        <time>2013-08-08T09:56:23Z</time>
      </trkpt>
      <trkpt lat="42.45065" lon="2.06281">
        <ele>1378</ele>
        <time>2013-08-08T09:56:27Z</time>
      </trkpt>
      <trkpt lat="42.45065" lon="2.06275">
        <ele>1377</ele>
        <time>2013-08-08T09:56:31Z</time>
      </trkpt>
      <trkpt lat="42.45066" lon="2.06269">
        <ele>1376</ele>
        <time>2013-08-08T09:56:35Z</time>
      </trkpt>
      <trkpt lat="42.4507" lon="2.06258">
        <ele>1375</ele>
        <time>2013-08-08T09:56:43Z</time>
      </trkpt>
      <trkpt lat="42.45074" lon="2.06252">
        <ele>1374</ele>
        <time>2013-08-08T09:56:47Z</time>
      </trkpt>
      <trkpt lat="42.45077" lon="2.06247">
        <ele>1374</ele>
        <time>2013-08-08T09:56:51Z</time>
      </trkpt>
      <trkpt lat="42.4508" lon="2.06241">
        <ele>1373</ele>
        <time>2013-08-08T09:56:55Z</time>
      </trkpt>
      <trkpt lat="42.45084" lon="2.06235">
        <ele>1372</ele>
        <time>2013-08-08T09:56:59Z</time>
      </trkpt>
      <trkpt lat="42.45086" lon="2.06228">
        <ele>1372</ele>
        <time>2013-08-08T09:57:03Z</time>
      </trkpt>
      <trkpt lat="42.45088" lon="2.06219">
        <ele>1371</ele>
        <time>2013-08-08T09:57:11Z</time>
      </trkpt>
      <trkpt lat="42.45089" lon="2.06217">
        <ele>1371.4</ele>
        <time>2013-08-08T09:57:13Z</time>
      </trkpt>
      <trkpt lat="42.45096" lon="2.06209">
        <ele>1370</ele>
        <time>2013-08-08T09:57:24Z</time>
      </trkpt>
      <trkpt lat="42.45099" lon="2.06207">
        <ele>1369.5</ele>
        <time>2013-08-08T09:57:27Z</time>
      </trkpt>
      <trkpt lat="42.45103" lon="2.06204">
        <ele>1368.2</ele>
        <time>2013-08-08T09:57:32Z</time>
      </trkpt>
      <trkpt lat="42.45107" lon="2.06202">
        <ele>1368.3</ele>
        <time>2013-08-08T09:57:37Z</time>
      </trkpt>
      <trkpt lat="42.45109" lon="2.06197">
        <ele>1366.6</ele>
        <time>2013-08-08T09:57:56Z</time>
      </trkpt>
      <trkpt lat="42.45112" lon="2.06193">
        <ele>1367</ele>
        <time>2013-08-08T09:58:03Z</time>
      </trkpt>
      <trkpt lat="42.45112" lon="2.06199">
        <ele>1366.7</ele>
        <time>2013-08-08T09:58:33Z</time>
      </trkpt>
      <trkpt lat="42.45112" lon="2.062">
        <ele>1366.7</ele>
        <time>2013-08-08T09:58:34Z</time>
      </trkpt>
      <trkpt lat="42.45115" lon="2.06197">
        <ele>1366.4</ele>
        <time>2013-08-08T09:59:05Z</time>
      </trkpt>
      <trkpt lat="42.45117" lon="2.06191">
        <ele>1366</ele>
        <time>2013-08-08T09:59:11Z</time>
      </trkpt>
      <trkpt lat="42.45115" lon="2.06187">
        <ele>1366.4</ele>
        <time>2013-08-08T09:59:21Z</time>
      </trkpt>
      <trkpt lat="42.45115" lon="2.06182">
        <ele>1366.4</ele>
        <time>2013-08-08T09:59:52Z</time>
      </trkpt>
      <trkpt lat="42.45115" lon="2.06181">
        <ele>1366.4</ele>
        <time>2013-08-08T09:59:53Z</time>
      </trkpt>
      <trkpt lat="42.45123" lon="2.06178">
        <ele>1365.5</ele>
        <time>2013-08-08T10:00:00Z</time>
      </trkpt>
      <trkpt lat="42.45127" lon="2.06176">
        <ele>1365.3</ele>
        <time>2013-08-08T10:00:03Z</time>
      </trkpt>
      <trkpt lat="42.4513" lon="2.06173">
        <ele>1365.2</ele>
        <time>2013-08-08T10:00:07Z</time>
      </trkpt>
      <trkpt lat="42.45133" lon="2.0617">
        <ele>1364.6</ele>
        <time>2013-08-08T10:00:10Z</time>
      </trkpt>
      <trkpt lat="42.45133" lon="2.06164">
        <ele>1363.3</ele>
        <time>2013-08-08T10:00:17Z</time>
      </trkpt>
      <trkpt lat="42.4513" lon="2.06161">
        <ele>1363</ele>
        <time>2013-08-08T10:00:21Z</time>
      </trkpt>
      <trkpt lat="42.45127" lon="2.06157">
        <ele>1363.3</ele>
        <time>2013-08-08T10:00:25Z</time>
      </trkpt>
      <trkpt lat="42.45124" lon="2.06155">
        <ele>1363.5</ele>
        <time>2013-08-08T10:00:28Z</time>
      </trkpt>
      <trkpt lat="42.45126" lon="2.06157">
        <ele>1362.4</ele>
        <time>2013-08-08T10:00:41Z</time>
      </trkpt>
      <trkpt lat="42.45129" lon="2.0616">
        <ele>1362.7</ele>
        <time>2013-08-08T10:00:43Z</time>
      </trkpt>
      <trkpt lat="42.45132" lon="2.06162">
        <ele>1363.1</ele>
        <time>2013-08-08T10:00:46Z</time>
      </trkpt>
      <trkpt lat="42.45138" lon="2.06162">
        <ele>1363</ele>
        <time>2013-08-08T10:00:53Z</time>
      </trkpt>
      <trkpt lat="42.45139" lon="2.06162">
        <ele>1363.7</ele>
        <time>2013-08-08T10:00:55Z</time>
      </trkpt>
      <trkpt lat="42.45142" lon="2.06153">
        <ele>1363.8</ele>
        <time>2013-08-08T10:01:04Z</time>
      </trkpt>
      <trkpt lat="42.45145" lon="2.06148">
        <ele>1363.5</ele>
        <time>2013-08-08T10:01:16Z</time>
      </trkpt>
      <trkpt lat="42.45147" lon="2.06143">
        <ele>1363.6</ele>
        <time>2013-08-08T10:01:31Z</time>
      </trkpt>
      <trkpt lat="42.45151" lon="2.06141">
        <ele>1363.6</ele>
        <time>2013-08-08T10:01:35Z</time>
      </trkpt>
      <trkpt lat="42.45154" lon="2.06137">
        <ele>1363.8</ele>
        <time>2013-08-08T10:01:39Z</time>
      </trkpt>
      <trkpt lat="42.45158" lon="2.06135">
        <ele>1363</ele>
        <time>2013-08-08T10:01:42Z</time>
      </trkpt>
      <trkpt lat="42.45161" lon="2.06133">
        <ele>1362.8</ele>
        <time>2013-08-08T10:01:45Z</time>
      </trkpt>
      <trkpt lat="42.45167" lon="2.06127">
        <ele>1363</ele>
        <time>2013-08-08T10:01:51Z</time>
      </trkpt>
      <trkpt lat="42.45172" lon="2.06122">
        <ele>1363</ele>
        <time>2013-08-08T10:01:59Z</time>
      </trkpt>
      <trkpt lat="42.45173" lon="2.06122">
        <ele>1363.6</ele>
        <time>2013-08-08T10:02:01Z</time>
      </trkpt>
      <trkpt lat="42.45183" lon="2.06111">
        <ele>1363</ele>
        <time>2013-08-08T10:02:15Z</time>
      </trkpt>
      <trkpt lat="42.45186" lon="2.06105">
        <ele>1362</ele>
        <time>2013-08-08T10:02:19Z</time>
      </trkpt>
      <trkpt lat="42.45188" lon="2.06099">
        <ele>1363</ele>
        <time>2013-08-08T10:02:23Z</time>
      </trkpt>
      <trkpt lat="42.45191" lon="2.06093">
        <ele>1363</ele>
        <time>2013-08-08T10:02:27Z</time>
      </trkpt>
      <trkpt lat="42.45194" lon="2.06089">
        <ele>1363.2</ele>
        <time>2013-08-08T10:02:32Z</time>
      </trkpt>
      <trkpt lat="42.45196" lon="2.06084">
        <ele>1363.6</ele>
        <time>2013-08-08T10:02:36Z</time>
      </trkpt>
      <trkpt lat="42.45198" lon="2.0608">
        <ele>1363.1</ele>
        <time>2013-08-08T10:02:40Z</time>
      </trkpt>
      <trkpt lat="42.45199" lon="2.06075">
        <ele>1362.8</ele>
        <time>2013-08-08T10:02:43Z</time>
      </trkpt>
      <trkpt lat="42.45202" lon="2.06072">
        <ele>1363</ele>
        <time>2013-08-08T10:02:46Z</time>
      </trkpt>
      <trkpt lat="42.45204" lon="2.06068">
        <ele>1363</ele>
        <time>2013-08-08T10:02:49Z</time>
      </trkpt>
      <trkpt lat="42.45205" lon="2.06064">
        <ele>1362.8</ele>
        <time>2013-08-08T10:02:51Z</time>
      </trkpt>
      <trkpt lat="42.45205" lon="2.06059">
        <ele>1363</ele>
        <time>2013-08-08T10:02:54Z</time>
      </trkpt>
      <trkpt lat="42.45205" lon="2.06054">
        <ele>1362.6</ele>
        <time>2013-08-08T10:02:57Z</time>
      </trkpt>
      <trkpt lat="42.45206" lon="2.06048">
        <ele>1361.9</ele>
        <time>2013-08-08T10:03:01Z</time>
      </trkpt>
      <trkpt lat="42.45206" lon="2.06047">
        <ele>1362</ele>
        <time>2013-08-08T10:03:02Z</time>
      </trkpt>
      <trkpt lat="42.45207" lon="2.06037">
        <ele>1363.1</ele>
        <time>2013-08-08T10:03:09Z</time>
      </trkpt>
      <trkpt lat="42.45209" lon="2.06033">
        <ele>1363.1</ele>
        <time>2013-08-08T10:03:12Z</time>
      </trkpt>
      <trkpt lat="42.45211" lon="2.06027">
        <ele>1362.4</ele>
        <time>2013-08-08T10:03:16Z</time>
      </trkpt>
      <trkpt lat="42.45211" lon="2.06022">
        <ele>1362.7</ele>
        <time>2013-08-08T10:03:19Z</time>
      </trkpt>
      <trkpt lat="42.45213" lon="2.06018">
        <ele>1362.8</ele>
        <time>2013-08-08T10:03:22Z</time>
      </trkpt>
      <trkpt lat="42.45216" lon="2.06014">
        <ele>1362.5</ele>
        <time>2013-08-08T10:03:26Z</time>
      </trkpt>
      <trkpt lat="42.45219" lon="2.06012">
        <ele>1362.3</ele>
        <time>2013-08-08T10:03:30Z</time>
      </trkpt>
      <trkpt lat="42.45223" lon="2.06012">
        <ele>1362.2</ele>
        <time>2013-08-08T10:03:33Z</time>
      </trkpt>
      <trkpt lat="42.45225" lon="2.06008">
        <ele>1362.2</ele>
        <time>2013-08-08T10:03:38Z</time>
      </trkpt>
      <trkpt lat="42.45232" lon="2.06">
        <ele>1361</ele>
        <time>2013-08-08T10:03:45Z</time>
      </trkpt>
      <trkpt lat="42.45235" lon="2.05995">
        <ele>1361</ele>
        <time>2013-08-08T10:03:49Z</time>
      </trkpt>
      <trkpt lat="42.45239" lon="2.0599">
        <ele>1360</ele>
        <time>2013-08-08T10:03:53Z</time>
      </trkpt>
      <trkpt lat="42.45243" lon="2.05985">
        <ele>1360</ele>
        <time>2013-08-08T10:03:57Z</time>
      </trkpt>
      <trkpt lat="42.45246" lon="2.0598">
        <ele>1361.3</ele>
        <time>2013-08-08T10:04:04Z</time>
      </trkpt>
      <trkpt lat="42.45247" lon="2.0598">
        <ele>1361.4</ele>
        <time>2013-08-08T10:04:05Z</time>
      </trkpt>
      <trkpt lat="42.45252" lon="2.05972">
        <ele>1361.5</ele>
        <time>2013-08-08T10:04:22Z</time>
      </trkpt>
      <trkpt lat="42.45254" lon="2.05966">
        <ele>1362.5</ele>
        <time>2013-08-08T10:04:28Z</time>
      </trkpt>
      <trkpt lat="42.45257" lon="2.05962">
        <ele>1362.8</ele>
        <time>2013-08-08T10:04:32Z</time>
      </trkpt>
      <trkpt lat="42.4526" lon="2.05958">
        <ele>1364</ele>
        <time>2013-08-08T10:04:38Z</time>
      </trkpt>
      <trkpt lat="42.45264" lon="2.05958">
        <ele>1364.9</ele>
        <time>2013-08-08T10:05:17Z</time>
      </trkpt>
      <trkpt lat="42.45265" lon="2.05959">
        <ele>1364.7</ele>
        <time>2013-08-08T10:05:18Z</time>
      </trkpt>
      <trkpt lat="42.45271" lon="2.05965">
        <ele>1366.3</ele>
        <time>2013-08-08T10:05:28Z</time>
      </trkpt>
      <trkpt lat="42.45275" lon="2.05968">
        <ele>1366</ele>
        <time>2013-08-08T10:05:33Z</time>
      </trkpt>
      <trkpt lat="42.45278" lon="2.05972">
        <ele>1366.7</ele>
        <time>2013-08-08T10:05:38Z</time>
      </trkpt>
      <trkpt lat="42.4528" lon="2.05975">
        <ele>1367.4</ele>
        <time>2013-08-08T10:05:43Z</time>
      </trkpt>
      <trkpt lat="42.45283" lon="2.05979">
        <ele>1368.3</ele>
        <time>2013-08-08T10:05:48Z</time>
      </trkpt>
      <trkpt lat="42.45287" lon="2.05982">
        <ele>1368.8</ele>
        <time>2013-08-08T10:05:53Z</time>
      </trkpt>
      <trkpt lat="42.4529" lon="2.05985">
        <ele>1368.8</ele>
        <time>2013-08-08T10:05:58Z</time>
      </trkpt>
      <trkpt lat="42.45293" lon="2.05988">
        <ele>1369.9</ele>
        <time>2013-08-08T10:06:02Z</time>
      </trkpt>
      <trkpt lat="42.45297" lon="2.05992">
        <ele>1370</ele>
        <time>2013-08-08T10:06:06Z</time>
      </trkpt>
      <trkpt lat="42.453" lon="2.05994">
        <ele>1370.3</ele>
        <time>2013-08-08T10:06:09Z</time>
      </trkpt>
      <trkpt lat="42.45303" lon="2.05996">
        <ele>1371.5</ele>
        <time>2013-08-08T10:06:13Z</time>
      </trkpt>
      <trkpt lat="42.45307" lon="2.05999">
        <ele>1371.6</ele>
        <time>2013-08-08T10:06:18Z</time>
      </trkpt>
      <trkpt lat="42.45307" lon="2.06">
        <ele>1371.8</ele>
        <time>2013-08-08T10:06:19Z</time>
      </trkpt>
      <trkpt lat="42.45313" lon="2.06006">
        <ele>1373</ele>
        <time>2013-08-08T10:06:28Z</time>
      </trkpt>
      <trkpt lat="42.45316" lon="2.06009">
        <ele>1373.5</ele>
        <time>2013-08-08T10:06:32Z</time>
      </trkpt>
      <trkpt lat="42.45318" lon="2.06011">
        <ele>1374.7</ele>
        <time>2013-08-08T10:06:35Z</time>
      </trkpt>
      <trkpt lat="42.45322" lon="2.06015">
        <ele>1374.6</ele>
        <time>2013-08-08T10:06:39Z</time>
      </trkpt>
      <trkpt lat="42.45325" lon="2.06018">
        <ele>1375.4</ele>
        <time>2013-08-08T10:06:43Z</time>
      </trkpt>
      <trkpt lat="42.45328" lon="2.06022">
        <ele>1375.5</ele>
        <time>2013-08-08T10:06:47Z</time>
      </trkpt>
      <trkpt lat="42.45331" lon="2.06026">
        <ele>1376.2</ele>
        <time>2013-08-08T10:06:51Z</time>
      </trkpt>
      <trkpt lat="42.45334" lon="2.06029">
        <ele>1376.6</ele>
        <time>2013-08-08T10:06:55Z</time>
      </trkpt>
      <trkpt lat="42.45337" lon="2.06033">
        <ele>1377.2</ele>
        <time>2013-08-08T10:06:59Z</time>
      </trkpt>
      <trkpt lat="42.4534" lon="2.06037">
        <ele>1377.2</ele>
        <time>2013-08-08T10:07:03Z</time>
      </trkpt>
      <trkpt lat="42.45343" lon="2.0604">
        <ele>1377.7</ele>
        <time>2013-08-08T10:07:10Z</time>
      </trkpt>
      <trkpt lat="42.45345" lon="2.06044">
        <ele>1378.2</ele>
        <time>2013-08-08T10:07:14Z</time>
      </trkpt>
      <trkpt lat="42.45349" lon="2.06048">
        <ele>1378</ele>
        <time>2013-08-08T10:07:18Z</time>
      </trkpt>
      <trkpt lat="42.45351" lon="2.06051">
        <ele>1378.9</ele>
        <time>2013-08-08T10:07:22Z</time>
      </trkpt>
      <trkpt lat="42.45352" lon="2.06052">
        <ele>1378.9</ele>
        <time>2013-08-08T10:07:23Z</time>
      </trkpt>
      <trkpt lat="42.45358" lon="2.06057">
        <ele>1379.6</ele>
        <time>2013-08-08T10:07:30Z</time>
      </trkpt>
      <trkpt lat="42.45361" lon="2.06061">
        <ele>1379.9</ele>
        <time>2013-08-08T10:07:34Z</time>
      </trkpt>
      <trkpt lat="42.45364" lon="2.06063">
        <ele>1380.4</ele>
        <time>2013-08-08T10:07:37Z</time>
      </trkpt>
      <trkpt lat="42.45367" lon="2.06067">
        <ele>1381.3</ele>
        <time>2013-08-08T10:07:41Z</time>
      </trkpt>
      <trkpt lat="42.45371" lon="2.06071">
        <ele>1381.3</ele>
        <time>2013-08-08T10:07:51Z</time>
      </trkpt>
      <trkpt lat="42.45374" lon="2.06075">
        <ele>1381.7</ele>
        <time>2013-08-08T10:07:56Z</time>
      </trkpt>
      <trkpt lat="42.45376" lon="2.06079">
        <ele>1382.1</ele>
        <time>2013-08-08T10:08:00Z</time>
      </trkpt>
      <trkpt lat="42.45377" lon="2.06085">
        <ele>1382.4</ele>
        <time>2013-08-08T10:08:06Z</time>
      </trkpt>
      <trkpt lat="42.45378" lon="2.0609">
        <ele>1382.5</ele>
        <time>2013-08-08T10:08:10Z</time>
      </trkpt>
      <trkpt lat="42.45379" lon="2.06095">
        <ele>1383.4</ele>
        <time>2013-08-08T10:08:15Z</time>
      </trkpt>
      <trkpt lat="42.4538" lon="2.06101">
        <ele>1383.7</ele>
        <time>2013-08-08T10:08:19Z</time>
      </trkpt>
      <trkpt lat="42.45382" lon="2.06105">
        <ele>1384.4</ele>
        <time>2013-08-08T10:08:23Z</time>
      </trkpt>
      <trkpt lat="42.45383" lon="2.06107">
        <ele>1384.3</ele>
        <time>2013-08-08T10:08:24Z</time>
      </trkpt>
      <trkpt lat="42.45386" lon="2.06115">
        <ele>1384.8</ele>
        <time>2013-08-08T10:08:31Z</time>
      </trkpt>
      <trkpt lat="42.45388" lon="2.06119">
        <ele>1385</ele>
        <time>2013-08-08T10:08:35Z</time>
      </trkpt>
      <trkpt lat="42.45392" lon="2.06122">
        <ele>1385.1</ele>
        <time>2013-08-08T10:08:39Z</time>
      </trkpt>
      <trkpt lat="42.45396" lon="2.06123">
        <ele>1386</ele>
        <time>2013-08-08T10:08:43Z</time>
      </trkpt>
      <trkpt lat="42.454" lon="2.06125">
        <ele>1387.8</ele>
        <time>2013-08-08T10:08:48Z</time>
      </trkpt>
      <trkpt lat="42.45404" lon="2.06124">
        <ele>1387.8</ele>
        <time>2013-08-08T10:08:53Z</time>
      </trkpt>
      <trkpt lat="42.45408" lon="2.06124">
        <ele>1388.2</ele>
        <time>2013-08-08T10:09:00Z</time>
      </trkpt>
      <trkpt lat="42.45412" lon="2.06124">
        <ele>1389.8</ele>
        <time>2013-08-08T10:09:06Z</time>
      </trkpt>
      <trkpt lat="42.45416" lon="2.06127">
        <ele>1390</ele>
        <time>2013-08-08T10:09:11Z</time>
      </trkpt>
      <trkpt lat="42.45419" lon="2.0613">
        <ele>1389.9</ele>
        <time>2013-08-08T10:09:16Z</time>
      </trkpt>
      <trkpt lat="42.45422" lon="2.06135">
        <ele>1390.4</ele>
        <time>2013-08-08T10:09:21Z</time>
      </trkpt>
      <trkpt lat="42.45424" lon="2.06138">
        <ele>1390.6</ele>
        <time>2013-08-08T10:09:25Z</time>
      </trkpt>
      <trkpt lat="42.45425" lon="2.06139">
        <ele>1390.4</ele>
        <time>2013-08-08T10:09:26Z</time>
      </trkpt>
      <trkpt lat="42.4543" lon="2.06147">
        <ele>1391.9</ele>
        <time>2013-08-08T10:09:35Z</time>
      </trkpt>
      <trkpt lat="42.45432" lon="2.06152">
        <ele>1392</ele>
        <time>2013-08-08T10:09:40Z</time>
      </trkpt>
      <trkpt lat="42.45434" lon="2.06157">
        <ele>1392.5</ele>
        <time>2013-08-08T10:09:45Z</time>
      </trkpt>
      <trkpt lat="42.45435" lon="2.06162">
        <ele>1393.3</ele>
        <time>2013-08-08T10:09:50Z</time>
      </trkpt>
      <trkpt lat="42.45436" lon="2.06167">
        <ele>1393.4</ele>
        <time>2013-08-08T10:09:55Z</time>
      </trkpt>
      <trkpt lat="42.45437" lon="2.06172">
        <ele>1394.5</ele>
        <time>2013-08-08T10:10:00Z</time>
      </trkpt>
      <trkpt lat="42.4544" lon="2.06177">
        <ele>1394.4</ele>
        <time>2013-08-08T10:10:05Z</time>
      </trkpt>
      <trkpt lat="42.45442" lon="2.06182">
        <ele>1395</ele>
        <time>2013-08-08T10:10:10Z</time>
      </trkpt>
      <trkpt lat="42.45444" lon="2.06186">
        <ele>1396.7</ele>
        <time>2013-08-08T10:10:15Z</time>
      </trkpt>
      <trkpt lat="42.45447" lon="2.06191">
        <ele>1396.6</ele>
        <time>2013-08-08T10:10:21Z</time>
      </trkpt>
      <trkpt lat="42.4545" lon="2.06195">
        <ele>1397.3</ele>
        <time>2013-08-08T10:10:26Z</time>
      </trkpt>
      <trkpt lat="42.45451" lon="2.06195">
        <ele>1397.4</ele>
        <time>2013-08-08T10:10:27Z</time>
      </trkpt>
      <trkpt lat="42.45455" lon="2.06204">
        <ele>1398.7</ele>
        <time>2013-08-08T10:10:37Z</time>
      </trkpt>
      <trkpt lat="42.45457" lon="2.06208">
        <ele>1399.1</ele>
        <time>2013-08-08T10:10:41Z</time>
      </trkpt>
      <trkpt lat="42.45458" lon="2.06213">
        <ele>1399.3</ele>
        <time>2013-08-08T10:10:45Z</time>
      </trkpt>
      <trkpt lat="42.45458" lon="2.06218">
        <ele>1399.8</ele>
        <time>2013-08-08T10:10:50Z</time>
      </trkpt>
      <trkpt lat="42.45459" lon="2.06224">
        <ele>1400.3</ele>
        <time>2013-08-08T10:10:55Z</time>
      </trkpt>
      <trkpt lat="42.4546" lon="2.06229">
        <ele>1399.8</ele>
        <time>2013-08-08T10:10:59Z</time>
      </trkpt>
      <trkpt lat="42.45461" lon="2.06234">
        <ele>1399.7</ele>
        <time>2013-08-08T10:11:03Z</time>
      </trkpt>
      <trkpt lat="42.45462" lon="2.06239">
        <ele>1400.2</ele>
        <time>2013-08-08T10:11:07Z</time>
      </trkpt>
      <trkpt lat="42.45462" lon="2.06244">
        <ele>1400.2</ele>
        <time>2013-08-08T10:11:16Z</time>
      </trkpt>
      <trkpt lat="42.45463" lon="2.0625">
        <ele>1400.4</ele>
        <time>2013-08-08T10:11:21Z</time>
      </trkpt>
      <trkpt lat="42.45463" lon="2.06256">
        <ele>1400.2</ele>
        <time>2013-08-08T10:11:25Z</time>
      </trkpt>
      <trkpt lat="42.45461" lon="2.0626">
        <ele>1400.2</ele>
        <time>2013-08-08T10:11:28Z</time>
      </trkpt>
      <trkpt lat="42.45461" lon="2.06261">
        <ele>1400.4</ele>
        <time>2013-08-08T10:11:29Z</time>
      </trkpt>
      <trkpt lat="42.4546" lon="2.06269">
        <ele>1401.3</ele>
        <time>2013-08-08T10:11:34Z</time>
      </trkpt>
      <trkpt lat="42.45461" lon="2.06274">
        <ele>1401.8</ele>
        <time>2013-08-08T10:11:39Z</time>
      </trkpt>
      <trkpt lat="42.45461" lon="2.0628">
        <ele>1402.5</ele>
        <time>2013-08-08T10:11:44Z</time>
      </trkpt>
      <trkpt lat="42.45461" lon="2.06285">
        <ele>1403</ele>
        <time>2013-08-08T10:11:48Z</time>
      </trkpt>
      <trkpt lat="42.45461" lon="2.0629">
        <ele>1403</ele>
        <time>2013-08-08T10:11:52Z</time>
      </trkpt>
      <trkpt lat="42.45461" lon="2.06296">
        <ele>1403.1</ele>
        <time>2013-08-08T10:11:57Z</time>
      </trkpt>
      <trkpt lat="42.4546" lon="2.06301">
        <ele>1404</ele>
        <time>2013-08-08T10:12:02Z</time>
      </trkpt>
      <trkpt lat="42.45459" lon="2.06306">
        <ele>1405.4</ele>
        <time>2013-08-08T10:12:10Z</time>
      </trkpt>
      <trkpt lat="42.45457" lon="2.06311">
        <ele>1405.8</ele>
        <time>2013-08-08T10:12:13Z</time>
      </trkpt>
      <trkpt lat="42.45456" lon="2.06316">
        <ele>1405.9</ele>
        <time>2013-08-08T10:12:17Z</time>
      </trkpt>
      <trkpt lat="42.45458" lon="2.06321">
        <ele>1405.8</ele>
        <time>2013-08-08T10:12:22Z</time>
      </trkpt>
      <trkpt lat="42.45459" lon="2.06327">
        <ele>1406.3</ele>
        <time>2013-08-08T10:12:26Z</time>
      </trkpt>
      <trkpt lat="42.4546" lon="2.06332">
        <ele>1406.5</ele>
        <time>2013-08-08T10:12:29Z</time>
      </trkpt>
      <trkpt lat="42.4546" lon="2.06334">
        <ele>1406.5</ele>
        <time>2013-08-08T10:12:30Z</time>
      </trkpt>
      <trkpt lat="42.45462" lon="2.06342">
        <ele>1407.4</ele>
        <time>2013-08-08T10:12:35Z</time>
      </trkpt>
      <trkpt lat="42.45463" lon="2.06347">
        <ele>1407.3</ele>
        <time>2013-08-08T10:12:41Z</time>
      </trkpt>
      <trkpt lat="42.45463" lon="2.06352">
        <ele>1407</ele>
        <time>2013-08-08T10:12:45Z</time>
      </trkpt>
      <trkpt lat="42.45464" lon="2.06358">
        <ele>1408</ele>
        <time>2013-08-08T10:12:50Z</time>
      </trkpt>
      <trkpt lat="42.45464" lon="2.06364">
        <ele>1408</ele>
        <time>2013-08-08T10:12:58Z</time>
      </trkpt>
      <trkpt lat="42.45465" lon="2.06369">
        <ele>1408.9</ele>
        <time>2013-08-08T10:13:03Z</time>
      </trkpt>
      <trkpt lat="42.45467" lon="2.06374">
        <ele>1409.6</ele>
        <time>2013-08-08T10:13:09Z</time>
      </trkpt>
      <trkpt lat="42.45468" lon="2.06378">
        <ele>1410.9</ele>
        <time>2013-08-08T10:13:15Z</time>
      </trkpt>
      <trkpt lat="42.45471" lon="2.06383">
        <ele>1411.5</ele>
        <time>2013-08-08T10:13:20Z</time>
      </trkpt>
      <trkpt lat="42.45473" lon="2.06387">
        <ele>1412.3</ele>
        <time>2013-08-08T10:13:24Z</time>
      </trkpt>
      <trkpt lat="42.45476" lon="2.06392">
        <ele>1412.6</ele>
        <time>2013-08-08T10:13:30Z</time>
      </trkpt>
      <trkpt lat="42.45476" lon="2.06393">
        <ele>1412.5</ele>
        <time>2013-08-08T10:13:31Z</time>
      </trkpt>
      <trkpt lat="42.45482" lon="2.064">
        <ele>1414</ele>
        <time>2013-08-08T10:13:40Z</time>
      </trkpt>
      <trkpt lat="42.45485" lon="2.06404">
        <ele>1414.8</ele>
        <time>2013-08-08T10:13:45Z</time>
      </trkpt>
      <trkpt lat="42.45488" lon="2.06407">
        <ele>1415.4</ele>
        <time>2013-08-08T10:13:50Z</time>
      </trkpt>
      <trkpt lat="42.45491" lon="2.06411">
        <ele>1416.5</ele>
        <time>2013-08-08T10:13:55Z</time>
      </trkpt>
      <trkpt lat="42.45494" lon="2.06414">
        <ele>1417.7</ele>
        <time>2013-08-08T10:14:02Z</time>
      </trkpt>
      <trkpt lat="42.45498" lon="2.06416">
        <ele>1419.5</ele>
        <time>2013-08-08T10:14:12Z</time>
      </trkpt>
      <trkpt lat="42.45502" lon="2.06419">
        <ele>1419.1</ele>
        <time>2013-08-08T10:14:18Z</time>
      </trkpt>
      <trkpt lat="42.45504" lon="2.06424">
        <ele>1420.2</ele>
        <time>2013-08-08T10:14:24Z</time>
      </trkpt>
      <trkpt lat="42.45507" lon="2.06428">
        <ele>1421.6</ele>
        <time>2013-08-08T10:14:33Z</time>
      </trkpt>
      <trkpt lat="42.45507" lon="2.06429">
        <ele>1421.7</ele>
        <time>2013-08-08T10:14:34Z</time>
      </trkpt>
      <trkpt lat="42.45511" lon="2.06438">
        <ele>1423.6</ele>
        <time>2013-08-08T10:14:47Z</time>
      </trkpt>
      <trkpt lat="42.45515" lon="2.06441">
        <ele>1423.8</ele>
        <time>2013-08-08T10:14:54Z</time>
      </trkpt>
      <trkpt lat="42.45516" lon="2.06447">
        <ele>1425</ele>
        <time>2013-08-08T10:15:02Z</time>
      </trkpt>
      <trkpt lat="42.45517" lon="2.06452">
        <ele>1426</ele>
        <time>2013-08-08T10:15:08Z</time>
      </trkpt>
      <trkpt lat="42.45517" lon="2.06457">
        <ele>1426.4</ele>
        <time>2013-08-08T10:15:13Z</time>
      </trkpt>
      <trkpt lat="42.45514" lon="2.06462">
        <ele>1427.3</ele>
        <time>2013-08-08T10:15:19Z</time>
      </trkpt>
      <trkpt lat="42.45511" lon="2.06464">
        <ele>1426.8</ele>
        <time>2013-08-08T10:15:24Z</time>
      </trkpt>
      <trkpt lat="42.45506" lon="2.06465">
        <ele>1427.5</ele>
        <time>2013-08-08T10:15:29Z</time>
      </trkpt>
      <trkpt lat="42.45503" lon="2.06467">
        <ele>1428.4</ele>
        <time>2013-08-08T10:15:37Z</time>
      </trkpt>
      <trkpt lat="42.45502" lon="2.06468">
        <ele>1428.4</ele>
        <time>2013-08-08T10:15:38Z</time>
      </trkpt>
      <trkpt lat="42.45501" lon="2.06476">
        <ele>1431.6</ele>
        <time>2013-08-08T10:15:57Z</time>
      </trkpt>
      <trkpt lat="42.45503" lon="2.06481">
        <ele>1432.2</ele>
        <time>2013-08-08T10:16:04Z</time>
      </trkpt>
      <trkpt lat="42.45506" lon="2.06484">
        <ele>1433.1</ele>
        <time>2013-08-08T10:16:10Z</time>
      </trkpt>
      <trkpt lat="42.45508" lon="2.06488">
        <ele>1434.2</ele>
        <time>2013-08-08T10:16:14Z</time>
      </trkpt>
      <trkpt lat="42.45511" lon="2.06492">
        <ele>1434</ele>
        <time>2013-08-08T10:16:20Z</time>
      </trkpt>
      <trkpt lat="42.45514" lon="2.06496">
        <ele>1435</ele>
        <time>2013-08-08T10:16:26Z</time>
      </trkpt>
      <trkpt lat="42.45516" lon="2.06502">
        <ele>1435.6</ele>
        <time>2013-08-08T10:16:32Z</time>
      </trkpt>
      <trkpt lat="42.45518" lon="2.06506">
        <ele>1436.3</ele>
        <time>2013-08-08T10:16:36Z</time>
      </trkpt>
      <trkpt lat="42.45519" lon="2.06511">
        <ele>1436.5</ele>
        <time>2013-08-08T10:16:41Z</time>
      </trkpt>
      <trkpt lat="42.4552" lon="2.06512">
        <ele>1436.5</ele>
        <time>2013-08-08T10:16:42Z</time>
      </trkpt>
      <trkpt lat="42.45524" lon="2.0652">
        <ele>1437.8</ele>
        <time>2013-08-08T10:16:54Z</time>
      </trkpt>
      <trkpt lat="42.45527" lon="2.06523">
        <ele>1439.4</ele>
        <time>2013-08-08T10:17:00Z</time>
      </trkpt>
      <trkpt lat="42.4553" lon="2.06526">
        <ele>1440.3</ele>
        <time>2013-08-08T10:17:05Z</time>
      </trkpt>
      <trkpt lat="42.45534" lon="2.06529">
        <ele>1440.8</ele>
        <time>2013-08-08T10:17:11Z</time>
      </trkpt>
      <trkpt lat="42.45538" lon="2.06527">
        <ele>1440.9</ele>
        <time>2013-08-08T10:17:16Z</time>
      </trkpt>
      <trkpt lat="42.45541" lon="2.06524">
        <ele>1441.9</ele>
        <time>2013-08-08T10:17:21Z</time>
      </trkpt>
      <trkpt lat="42.45542" lon="2.0652">
        <ele>1442.4</ele>
        <time>2013-08-08T10:17:26Z</time>
      </trkpt>
      <trkpt lat="42.45544" lon="2.06514">
        <ele>1443.1</ele>
        <time>2013-08-08T10:17:32Z</time>
      </trkpt>
      <trkpt lat="42.45545" lon="2.06509">
        <ele>1445.1</ele>
        <time>2013-08-08T10:17:41Z</time>
      </trkpt>
      <trkpt lat="42.45543" lon="2.06504">
        <ele>1445.6</ele>
        <time>2013-08-08T10:17:50Z</time>
      </trkpt>
      <trkpt lat="42.45543" lon="2.06503">
        <ele>1446</ele>
        <time>2013-08-08T10:17:51Z</time>
      </trkpt>
      <trkpt lat="42.45544" lon="2.06493">
        <ele>1447.9</ele>
        <time>2013-08-08T10:18:02Z</time>
      </trkpt>
      <trkpt lat="42.45546" lon="2.06487">
        <ele>1448.6</ele>
        <time>2013-08-08T10:18:08Z</time>
      </trkpt>
      <trkpt lat="42.45549" lon="2.0649">
        <ele>1449.1</ele>
        <time>2013-08-08T10:18:15Z</time>
      </trkpt>
      <trkpt lat="42.45551" lon="2.06485">
        <ele>1452.8</ele>
        <time>2013-08-08T10:18:52Z</time>
      </trkpt>
      <trkpt lat="42.45551" lon="2.06485">
        <ele>1452.8</ele>
        <time>2013-08-08T10:18:52Z</time>
      </trkpt>
    </trkseg>
  </trk>
</gpx>